<?xml version="1.0" encoding="UTF-8" standalone="no" ?>
<gpx xmlns="http://www.topografix.com/GPX/1/1" xmlns:xsi="http://www.w3.org/2001/XMLSchema-instance" xsi:schemaLocation="http://www.topografix.com/GPX/1/1 http://www.topografix.com/GPX/1/1/gpx.xsd" version="1.1" creator="VisuGPX - https://www.visugpx.com">
  <metadata>
    <name>Le Faraut 2223 par le pas de l'arche (Dévoluy)</name>
    <desc><![CDATA[Au départ d'[b]Ambel[/b]. 
Le départ classique des difficultés pour le [b]pas de l'Arche[/b] si situe sous les "S" de [b]Sautet[/b] sur la carte (voir la trace [url]https://www.visugpx.com/1344111025[/url])
A/R au Faraut depuis la [b]cabane de l'Aiguillette[/b].
Au [b]Col de l'Aulp[/b], la descente vers "[b]Entre les Pas[/b]" est bien indiquée et bien tracée. Toute la partie raide est câblée.
Trouver une voiture pour revenir de [b]Monestier d'Ambel[/b] vers [b]Ambel [/b](4,5 km en plein cagnard!)
.
Photos ici : [url]https://photos.app.goo.gl/QhRHsxaLZfMW11ZB9[/url]
Celles de Kikou là: [url]https://photos.app.goo.gl/8NaeXykzs9KTKxcP8[/url]
.
Autres sorties dans le Dévoluy --> [url]http://www.visugpx.com/membres/87/devoluy/?tri=ttr [/url]]]></desc>
  </metadata>
  <wpt lat="44.78506" lon="5.94311">
    <ele>1596.71</ele>
    <name><![CDATA[tete de la sambut]]></name>
    <desc><![CDATA[]]></desc>
    <type><![CDATA[Jalon]]></type>
  </wpt>
  <wpt lat="44.76799" lon="5.95261">
    <ele>2234.74</ele>
    <name><![CDATA[]]></name>
    <desc><![CDATA[]]></desc>
    <type><![CDATA[Jalon]]></type>
  </wpt>
  <trk>
    <name><![CDATA[2018-06-28 08:05]]></name>
    <desc><![CDATA[<p>Heure de départ: 06/28/2018 08:05</p><p>Heure d'arrivée: 06/28/2018 16:56</p><p>Distance: 15,2 km (08:51)</p><p>Temps déplacement: 04:35</p><p>Vitesse moyenne: 1,71 km/h</p><p>Vitesse moyenne mouv.: 3,31 km/h</p><p>Vitesse Max.: 7,78km/h</p><p>Altitude minimale: 911 m</p><p>Altitude maximale: 2233 m</p><p>Vitesse de montée: 359,2 m/h</p><p>Vitesse de descente: -438,6 m/h</p><p>Gain d'altitude: 1742 m</p><p>Perte d'altitude: -1715 m</p><p>Temps de montée: 04:51</p><p>Temps de descente: 03:54</p><hr align="center" width="480" style="height: 2px; width: 517px"/>]]></desc>
    <trkseg>
      <trkpt lat="44.80425" lon="5.93289">
        <ele>917.71</ele>
        <time>2018-06-28T06:05:12Z</time>
      </trkpt>
      <trkpt lat="44.80408" lon="5.93275">
        <ele>915.9</ele>
        <time>2018-06-28T06:05:32Z</time>
      </trkpt>
      <trkpt lat="44.80396" lon="5.93257">
        <ele>911.94</ele>
        <time>2018-06-28T06:05:46Z</time>
      </trkpt>
      <trkpt lat="44.8038" lon="5.93243">
        <ele>917.68</ele>
        <time>2018-06-28T06:06:01Z</time>
      </trkpt>
      <trkpt lat="44.80362" lon="5.93235">
        <ele>916.57</ele>
        <time>2018-06-28T06:06:16Z</time>
      </trkpt>
      <trkpt lat="44.80344" lon="5.93229">
        <ele>918.28</ele>
        <time>2018-06-28T06:06:34Z</time>
      </trkpt>
      <trkpt lat="44.80327" lon="5.93217">
        <ele>918.74</ele>
        <time>2018-06-28T06:06:50Z</time>
      </trkpt>
      <trkpt lat="44.80309" lon="5.93207">
        <ele>916.74</ele>
        <time>2018-06-28T06:07:12Z</time>
      </trkpt>
      <trkpt lat="44.80291" lon="5.93206">
        <ele>919.74</ele>
        <time>2018-06-28T06:07:25Z</time>
      </trkpt>
      <trkpt lat="44.80272" lon="5.93208">
        <ele>924.73</ele>
        <time>2018-06-28T06:07:38Z</time>
      </trkpt>
      <trkpt lat="44.80253" lon="5.9321">
        <ele>923.7</ele>
        <time>2018-06-28T06:07:53Z</time>
      </trkpt>
      <trkpt lat="44.80234" lon="5.93212">
        <ele>923.74</ele>
        <time>2018-06-28T06:08:07Z</time>
      </trkpt>
      <trkpt lat="44.80215" lon="5.93208">
        <ele>927.13</ele>
        <time>2018-06-28T06:08:21Z</time>
      </trkpt>
      <trkpt lat="44.80197" lon="5.93202">
        <ele>925.57</ele>
        <time>2018-06-28T06:08:38Z</time>
      </trkpt>
      <trkpt lat="44.80178" lon="5.93202">
        <ele>928.98</ele>
        <time>2018-06-28T06:09:02Z</time>
      </trkpt>
      <trkpt lat="44.8016" lon="5.93196">
        <ele>924.93</ele>
        <time>2018-06-28T06:09:51Z</time>
      </trkpt>
      <trkpt lat="44.80143" lon="5.93186">
        <ele>925.71</ele>
        <time>2018-06-28T06:10:12Z</time>
      </trkpt>
      <trkpt lat="44.80124" lon="5.93182">
        <ele>929.74</ele>
        <time>2018-06-28T06:10:27Z</time>
      </trkpt>
      <trkpt lat="44.80106" lon="5.93176">
        <ele>931.54</ele>
        <time>2018-06-28T06:10:44Z</time>
      </trkpt>
      <trkpt lat="44.80089" lon="5.93187">
        <ele>936.7</ele>
        <time>2018-06-28T06:11:00Z</time>
      </trkpt>
      <trkpt lat="44.8008" lon="5.9321">
        <ele>943.93</ele>
        <time>2018-06-28T06:11:52Z</time>
      </trkpt>
      <trkpt lat="44.80071" lon="5.93232">
        <ele>942.93</ele>
        <time>2018-06-28T06:12:14Z</time>
      </trkpt>
      <trkpt lat="44.80056" lon="5.93247">
        <ele>948.33</ele>
        <time>2018-06-28T06:12:35Z</time>
      </trkpt>
      <trkpt lat="44.80039" lon="5.93257">
        <ele>944.74</ele>
        <time>2018-06-28T06:13:01Z</time>
      </trkpt>
      <trkpt lat="44.80024" lon="5.93271">
        <ele>953.78</ele>
        <time>2018-06-28T06:13:28Z</time>
      </trkpt>
      <trkpt lat="44.80006" lon="5.93279">
        <ele>953.74</ele>
        <time>2018-06-28T06:13:49Z</time>
      </trkpt>
      <trkpt lat="44.79989" lon="5.93289">
        <ele>957.93</ele>
        <time>2018-06-28T06:14:13Z</time>
      </trkpt>
      <trkpt lat="44.79977" lon="5.93308">
        <ele>967.34</ele>
        <time>2018-06-28T06:14:28Z</time>
      </trkpt>
      <trkpt lat="44.79974" lon="5.93333">
        <ele>964.03</ele>
        <time>2018-06-28T06:14:47Z</time>
      </trkpt>
      <trkpt lat="44.79968" lon="5.93358">
        <ele>964.94</ele>
        <time>2018-06-28T06:15:12Z</time>
      </trkpt>
      <trkpt lat="44.79956" lon="5.93376">
        <ele>968.53</ele>
        <time>2018-06-28T06:15:27Z</time>
      </trkpt>
      <trkpt lat="44.79939" lon="5.93384">
        <ele>964.74</ele>
        <time>2018-06-28T06:15:42Z</time>
      </trkpt>
      <trkpt lat="44.79923" lon="5.93397">
        <ele>967.77</ele>
        <time>2018-06-28T06:16:02Z</time>
      </trkpt>
      <trkpt lat="44.7991" lon="5.93416">
        <ele>964.53</ele>
        <time>2018-06-28T06:16:23Z</time>
      </trkpt>
      <trkpt lat="44.79923" lon="5.93396">
        <ele>966.78</ele>
        <time>2018-06-28T06:17:10Z</time>
      </trkpt>
      <trkpt lat="44.79935" lon="5.93376">
        <ele>968.75</ele>
        <time>2018-06-28T06:17:25Z</time>
      </trkpt>
      <trkpt lat="44.7994" lon="5.9335">
        <ele>972.5</ele>
        <time>2018-06-28T06:17:40Z</time>
      </trkpt>
      <trkpt lat="44.79936" lon="5.93323">
        <ele>973.98</ele>
        <time>2018-06-28T06:17:55Z</time>
      </trkpt>
      <trkpt lat="44.79919" lon="5.93312">
        <ele>969.55</ele>
        <time>2018-06-28T06:18:28Z</time>
      </trkpt>
      <trkpt lat="44.799" lon="5.93315">
        <ele>972.77</ele>
        <time>2018-06-28T06:18:56Z</time>
      </trkpt>
      <trkpt lat="44.79884" lon="5.933">
        <ele>972.9</ele>
        <time>2018-06-28T06:19:23Z</time>
      </trkpt>
      <trkpt lat="44.79867" lon="5.93292">
        <ele>985.75</ele>
        <time>2018-06-28T06:20:08Z</time>
      </trkpt>
      <trkpt lat="44.79844" lon="5.93301">
        <ele>995.66</ele>
        <time>2018-06-28T06:20:58Z</time>
      </trkpt>
      <trkpt lat="44.79826" lon="5.93305">
        <ele>999.54</ele>
        <time>2018-06-28T06:21:21Z</time>
      </trkpt>
      <trkpt lat="44.79815" lon="5.93326">
        <ele>1008.74</ele>
        <time>2018-06-28T06:22:10Z</time>
      </trkpt>
      <trkpt lat="44.79806" lon="5.93351">
        <ele>1014.18</ele>
        <time>2018-06-28T06:22:44Z</time>
      </trkpt>
      <trkpt lat="44.79793" lon="5.9337">
        <ele>1017.75</ele>
        <time>2018-06-28T06:23:20Z</time>
      </trkpt>
      <trkpt lat="44.79781" lon="5.93393">
        <ele>1022.7</ele>
        <time>2018-06-28T06:23:44Z</time>
      </trkpt>
      <trkpt lat="44.79775" lon="5.93418">
        <ele>1034.55</ele>
        <time>2018-06-28T06:24:25Z</time>
      </trkpt>
      <trkpt lat="44.79762" lon="5.93435">
        <ele>1037.71</ele>
        <time>2018-06-28T06:24:54Z</time>
      </trkpt>
      <trkpt lat="44.79751" lon="5.93414">
        <ele>1047.93</ele>
        <time>2018-06-28T06:25:36Z</time>
      </trkpt>
      <trkpt lat="44.79733" lon="5.93408">
        <ele>1048.9</ele>
        <time>2018-06-28T06:26:03Z</time>
      </trkpt>
      <trkpt lat="44.79723" lon="5.93384">
        <ele>1060.08</ele>
        <time>2018-06-28T06:26:56Z</time>
      </trkpt>
      <trkpt lat="44.79708" lon="5.93368">
        <ele>1066.74</ele>
        <time>2018-06-28T06:27:33Z</time>
      </trkpt>
      <trkpt lat="44.79691" lon="5.93354">
        <ele>1079.7</ele>
        <time>2018-06-28T06:28:19Z</time>
      </trkpt>
      <trkpt lat="44.79672" lon="5.93348">
        <ele>1078.73</ele>
        <time>2018-06-28T06:28:32Z</time>
      </trkpt>
      <trkpt lat="44.79652" lon="5.93342">
        <ele>1078.94</ele>
        <time>2018-06-28T06:29:09Z</time>
      </trkpt>
      <trkpt lat="44.79635" lon="5.93331">
        <ele>1081.74</ele>
        <time>2018-06-28T06:29:37Z</time>
      </trkpt>
      <trkpt lat="44.79621" lon="5.93315">
        <ele>1082.79</ele>
        <time>2018-06-28T06:30:05Z</time>
      </trkpt>
      <trkpt lat="44.79616" lon="5.9329">
        <ele>1094.9</ele>
        <time>2018-06-28T06:30:35Z</time>
      </trkpt>
      <trkpt lat="44.79606" lon="5.93269">
        <ele>1097.74</ele>
        <time>2018-06-28T06:31:07Z</time>
      </trkpt>
      <trkpt lat="44.7959" lon="5.93259">
        <ele>1100.66</ele>
        <time>2018-06-28T06:31:37Z</time>
      </trkpt>
      <trkpt lat="44.79572" lon="5.93248">
        <ele>1111.34</ele>
        <time>2018-06-28T06:32:04Z</time>
      </trkpt>
      <trkpt lat="44.79554" lon="5.93251">
        <ele>1121.54</ele>
        <time>2018-06-28T06:32:42Z</time>
      </trkpt>
      <trkpt lat="44.79536" lon="5.93249">
        <ele>1128.73</ele>
        <time>2018-06-28T06:33:33Z</time>
      </trkpt>
      <trkpt lat="44.7952" lon="5.93262">
        <ele>1132.56</ele>
        <time>2018-06-28T06:33:59Z</time>
      </trkpt>
      <trkpt lat="44.79502" lon="5.93256">
        <ele>1143.7</ele>
        <time>2018-06-28T06:34:39Z</time>
      </trkpt>
      <trkpt lat="44.79485" lon="5.93243">
        <ele>1149.31</ele>
        <time>2018-06-28T06:35:02Z</time>
      </trkpt>
      <trkpt lat="44.79467" lon="5.93237">
        <ele>1145.99</ele>
        <time>2018-06-28T06:35:36Z</time>
      </trkpt>
      <trkpt lat="44.79449" lon="5.93238">
        <ele>1153.74</ele>
        <time>2018-06-28T06:36:10Z</time>
      </trkpt>
      <trkpt lat="44.79432" lon="5.93251">
        <ele>1162.5</ele>
        <time>2018-06-28T06:36:42Z</time>
      </trkpt>
      <trkpt lat="44.79415" lon="5.93262">
        <ele>1169.73</ele>
        <time>2018-06-28T06:36:59Z</time>
      </trkpt>
      <trkpt lat="44.79397" lon="5.93265">
        <ele>1170.77</ele>
        <time>2018-06-28T06:37:22Z</time>
      </trkpt>
      <trkpt lat="44.79399" lon="5.9329">
        <ele>1178.74</ele>
        <time>2018-06-28T06:38:32Z</time>
      </trkpt>
      <trkpt lat="44.79399" lon="5.93316">
        <ele>1181.35</ele>
        <time>2018-06-28T06:39:05Z</time>
      </trkpt>
      <trkpt lat="44.79391" lon="5.93342">
        <ele>1184.96</ele>
        <time>2018-06-28T06:39:51Z</time>
      </trkpt>
      <trkpt lat="44.79374" lon="5.93348">
        <ele>1179.78</ele>
        <time>2018-06-28T06:40:07Z</time>
      </trkpt>
      <trkpt lat="44.79354" lon="5.93345">
        <ele>1182.1</ele>
        <time>2018-06-28T06:40:24Z</time>
      </trkpt>
      <trkpt lat="44.79334" lon="5.93347">
        <ele>1188.53</ele>
        <time>2018-06-28T06:41:00Z</time>
      </trkpt>
      <trkpt lat="44.79319" lon="5.93363">
        <ele>1196.58</ele>
        <time>2018-06-28T06:41:13Z</time>
      </trkpt>
      <trkpt lat="44.79301" lon="5.93365">
        <ele>1192.75</ele>
        <time>2018-06-28T06:41:34Z</time>
      </trkpt>
      <trkpt lat="44.79315" lon="5.93381">
        <ele>1200.5</ele>
        <time>2018-06-28T06:42:01Z</time>
      </trkpt>
      <trkpt lat="44.79332" lon="5.93389">
        <ele>1200.78</ele>
        <time>2018-06-28T06:42:18Z</time>
      </trkpt>
      <trkpt lat="44.7935" lon="5.93398">
        <ele>1208.54</ele>
        <time>2018-06-28T06:42:40Z</time>
      </trkpt>
      <trkpt lat="44.79337" lon="5.93416">
        <ele>1202.09</ele>
        <time>2018-06-28T06:43:16Z</time>
      </trkpt>
      <trkpt lat="44.79318" lon="5.93416">
        <ele>1199.56</ele>
        <time>2018-06-28T06:44:50Z</time>
      </trkpt>
      <trkpt lat="44.79299" lon="5.93418">
        <ele>1204.5</ele>
        <time>2018-06-28T06:45:09Z</time>
      </trkpt>
      <trkpt lat="44.7928" lon="5.93406">
        <ele>1207.7</ele>
        <time>2018-06-28T06:45:24Z</time>
      </trkpt>
      <trkpt lat="44.79261" lon="5.93411">
        <ele>1210.34</ele>
        <time>2018-06-28T06:45:42Z</time>
      </trkpt>
      <trkpt lat="44.79244" lon="5.93405">
        <ele>1214.74</ele>
        <time>2018-06-28T06:46:01Z</time>
      </trkpt>
      <trkpt lat="44.79225" lon="5.93414">
        <ele>1215.34</ele>
        <time>2018-06-28T06:46:23Z</time>
      </trkpt>
      <trkpt lat="44.79207" lon="5.93421">
        <ele>1172.7</ele>
        <time>2018-06-28T06:46:38Z</time>
      </trkpt>
      <trkpt lat="44.7919" lon="5.93432">
        <ele>1214.74</ele>
        <time>2018-06-28T06:46:53Z</time>
      </trkpt>
      <trkpt lat="44.79172" lon="5.93438">
        <ele>1222.53</ele>
        <time>2018-06-28T06:47:10Z</time>
      </trkpt>
      <trkpt lat="44.79155" lon="5.93447">
        <ele>1227.14</ele>
        <time>2018-06-28T06:47:50Z</time>
      </trkpt>
      <trkpt lat="44.79165" lon="5.9347">
        <ele>1235.55</ele>
        <time>2018-06-28T06:48:29Z</time>
      </trkpt>
      <trkpt lat="44.79168" lon="5.93495">
        <ele>1240.94</ele>
        <time>2018-06-28T06:49:12Z</time>
      </trkpt>
      <trkpt lat="44.79171" lon="5.9352">
        <ele>1252.74</ele>
        <time>2018-06-28T06:50:19Z</time>
      </trkpt>
      <trkpt lat="44.79153" lon="5.93531">
        <ele>1251.34</ele>
        <time>2018-06-28T06:51:12Z</time>
      </trkpt>
      <trkpt lat="44.79134" lon="5.9354">
        <ele>1256.54</ele>
        <time>2018-06-28T06:51:53Z</time>
      </trkpt>
      <trkpt lat="44.79116" lon="5.93548">
        <ele>1257.55</ele>
        <time>2018-06-28T06:52:16Z</time>
      </trkpt>
      <trkpt lat="44.79098" lon="5.93548">
        <ele>1265.74</ele>
        <time>2018-06-28T06:54:22Z</time>
      </trkpt>
      <trkpt lat="44.79081" lon="5.93555">
        <ele>1263.78</ele>
        <time>2018-06-28T06:54:36Z</time>
      </trkpt>
      <trkpt lat="44.79062" lon="5.93562">
        <ele>1266.73</ele>
        <time>2018-06-28T06:54:54Z</time>
      </trkpt>
      <trkpt lat="44.79044" lon="5.93559">
        <ele>1267.54</ele>
        <time>2018-06-28T06:55:17Z</time>
      </trkpt>
      <trkpt lat="44.79025" lon="5.93566">
        <ele>1270.49</ele>
        <time>2018-06-28T06:55:33Z</time>
      </trkpt>
      <trkpt lat="44.79007" lon="5.93573">
        <ele>1271.51</ele>
        <time>2018-06-28T06:55:50Z</time>
      </trkpt>
      <trkpt lat="44.78988" lon="5.93578">
        <ele>1275.7</ele>
        <time>2018-06-28T06:56:08Z</time>
      </trkpt>
      <trkpt lat="44.78971" lon="5.93587">
        <ele>1274.74</ele>
        <time>2018-06-28T06:56:48Z</time>
      </trkpt>
      <trkpt lat="44.78953" lon="5.93593">
        <ele>1280.33</ele>
        <time>2018-06-28T06:57:13Z</time>
      </trkpt>
      <trkpt lat="44.78935" lon="5.936">
        <ele>1276.78</ele>
        <time>2018-06-28T06:57:29Z</time>
      </trkpt>
      <trkpt lat="44.78916" lon="5.936">
        <ele>1277.55</ele>
        <time>2018-06-28T06:57:49Z</time>
      </trkpt>
      <trkpt lat="44.78899" lon="5.9361">
        <ele>1283.12</ele>
        <time>2018-06-28T06:58:06Z</time>
      </trkpt>
      <trkpt lat="44.7888" lon="5.93611">
        <ele>1285.7</ele>
        <time>2018-06-28T06:58:25Z</time>
      </trkpt>
      <trkpt lat="44.78863" lon="5.93623">
        <ele>1285.5</ele>
        <time>2018-06-28T06:58:42Z</time>
      </trkpt>
      <trkpt lat="44.78845" lon="5.93626">
        <ele>1289.57</ele>
        <time>2018-06-28T06:58:57Z</time>
      </trkpt>
      <trkpt lat="44.78829" lon="5.93637">
        <ele>1293.58</ele>
        <time>2018-06-28T06:59:15Z</time>
      </trkpt>
      <trkpt lat="44.7881" lon="5.93638">
        <ele>1296.5</ele>
        <time>2018-06-28T06:59:29Z</time>
      </trkpt>
      <trkpt lat="44.78791" lon="5.93648">
        <ele>1300.57</ele>
        <time>2018-06-28T06:59:49Z</time>
      </trkpt>
      <trkpt lat="44.78775" lon="5.93659">
        <ele>1303.54</ele>
        <time>2018-06-28T07:00:03Z</time>
      </trkpt>
      <trkpt lat="44.78756" lon="5.9367">
        <ele>1301.95</ele>
        <time>2018-06-28T07:00:24Z</time>
      </trkpt>
      <trkpt lat="44.78737" lon="5.9367">
        <ele>1302.55</ele>
        <time>2018-06-28T07:00:38Z</time>
      </trkpt>
      <trkpt lat="44.78721" lon="5.93683">
        <ele>1303.69</ele>
        <time>2018-06-28T07:00:54Z</time>
      </trkpt>
      <trkpt lat="44.78709" lon="5.93703">
        <ele>1302.63</ele>
        <time>2018-06-28T07:01:12Z</time>
      </trkpt>
      <trkpt lat="44.78724" lon="5.93685">
        <ele>1305.54</ele>
        <time>2018-06-28T07:01:35Z</time>
      </trkpt>
      <trkpt lat="44.7874" lon="5.93675">
        <ele>1312.94</ele>
        <time>2018-06-28T07:01:50Z</time>
      </trkpt>
      <trkpt lat="44.78759" lon="5.93681">
        <ele>1313.97</ele>
        <time>2018-06-28T07:02:04Z</time>
      </trkpt>
      <trkpt lat="44.78776" lon="5.93694">
        <ele>1311.94</ele>
        <time>2018-06-28T07:02:16Z</time>
      </trkpt>
      <trkpt lat="44.78795" lon="5.93705">
        <ele>1306.75</ele>
        <time>2018-06-28T07:02:33Z</time>
      </trkpt>
      <trkpt lat="44.78813" lon="5.93701">
        <ele>1309.52</ele>
        <time>2018-06-28T07:02:52Z</time>
      </trkpt>
      <trkpt lat="44.78831" lon="5.93694">
        <ele>1320.24</ele>
        <time>2018-06-28T07:03:09Z</time>
      </trkpt>
      <trkpt lat="44.78849" lon="5.93689">
        <ele>1328.93</ele>
        <time>2018-06-28T07:03:29Z</time>
      </trkpt>
      <trkpt lat="44.78867" lon="5.9369">
        <ele>1333.54</ele>
        <time>2018-06-28T07:03:45Z</time>
      </trkpt>
      <trkpt lat="44.78886" lon="5.93696">
        <ele>1329.74</ele>
        <time>2018-06-28T07:03:57Z</time>
      </trkpt>
      <trkpt lat="44.78904" lon="5.93699">
        <ele>1325.94</ele>
        <time>2018-06-28T07:04:12Z</time>
      </trkpt>
      <trkpt lat="44.78923" lon="5.937">
        <ele>1326.74</ele>
        <time>2018-06-28T07:04:45Z</time>
      </trkpt>
      <trkpt lat="44.78942" lon="5.93702">
        <ele>1331.29</ele>
        <time>2018-06-28T07:04:55Z</time>
      </trkpt>
      <trkpt lat="44.78959" lon="5.93711">
        <ele>1339.7</ele>
        <time>2018-06-28T07:05:10Z</time>
      </trkpt>
      <trkpt lat="44.78976" lon="5.93715">
        <ele>1347.74</ele>
        <time>2018-06-28T07:05:34Z</time>
      </trkpt>
      <trkpt lat="44.78978" lon="5.93741">
        <ele>1350.74</ele>
        <time>2018-06-28T07:06:31Z</time>
      </trkpt>
      <trkpt lat="44.78978" lon="5.93768">
        <ele>1371.32</ele>
        <time>2018-06-28T07:08:31Z</time>
      </trkpt>
      <trkpt lat="44.78995" lon="5.93778">
        <ele>1375.56</ele>
        <time>2018-06-28T07:08:58Z</time>
      </trkpt>
      <trkpt lat="44.78999" lon="5.93803">
        <ele>1381.69</ele>
        <time>2018-06-28T07:10:16Z</time>
      </trkpt>
      <trkpt lat="44.79004" lon="5.93831">
        <ele>1396.66</ele>
        <time>2018-06-28T07:12:12Z</time>
      </trkpt>
      <trkpt lat="44.79022" lon="5.93835">
        <ele>1399.73</ele>
        <time>2018-06-28T07:12:55Z</time>
      </trkpt>
      <trkpt lat="44.79021" lon="5.9386">
        <ele>1405.67</ele>
        <time>2018-06-28T07:13:29Z</time>
      </trkpt>
      <trkpt lat="44.79039" lon="5.9387">
        <ele>1410.53</ele>
        <time>2018-06-28T07:14:04Z</time>
      </trkpt>
      <trkpt lat="44.79056" lon="5.93878">
        <ele>1409.74</ele>
        <time>2018-06-28T07:14:32Z</time>
      </trkpt>
      <trkpt lat="44.79067" lon="5.93899">
        <ele>1415.48</ele>
        <time>2018-06-28T07:15:13Z</time>
      </trkpt>
      <trkpt lat="44.79051" lon="5.93912">
        <ele>1413.54</ele>
        <time>2018-06-28T07:15:32Z</time>
      </trkpt>
      <trkpt lat="44.79044" lon="5.93936">
        <ele>1422.72</ele>
        <time>2018-06-28T07:16:05Z</time>
      </trkpt>
      <trkpt lat="44.79027" lon="5.93946">
        <ele>1428.54</ele>
        <time>2018-06-28T07:16:30Z</time>
      </trkpt>
      <trkpt lat="44.79009" lon="5.9395">
        <ele>1433.7</ele>
        <time>2018-06-28T07:17:09Z</time>
      </trkpt>
      <trkpt lat="44.78991" lon="5.93943">
        <ele>1442.7</ele>
        <time>2018-06-28T07:17:26Z</time>
      </trkpt>
      <trkpt lat="44.78972" lon="5.93945">
        <ele>1446.59</ele>
        <time>2018-06-28T07:17:47Z</time>
      </trkpt>
      <trkpt lat="44.78954" lon="5.93949">
        <ele>1445.54</ele>
        <time>2018-06-28T07:18:03Z</time>
      </trkpt>
      <trkpt lat="44.78935" lon="5.93947">
        <ele>1443.82</ele>
        <time>2018-06-28T07:18:24Z</time>
      </trkpt>
      <trkpt lat="44.78919" lon="5.93957">
        <ele>1447.61</ele>
        <time>2018-06-28T07:18:40Z</time>
      </trkpt>
      <trkpt lat="44.78903" lon="5.93974">
        <ele>1454.33</ele>
        <time>2018-06-28T07:18:59Z</time>
      </trkpt>
      <trkpt lat="44.78887" lon="5.93987">
        <ele>1465.74</ele>
        <time>2018-06-28T07:19:33Z</time>
      </trkpt>
      <trkpt lat="44.78871" lon="5.93999">
        <ele>1472.62</ele>
        <time>2018-06-28T07:19:59Z</time>
      </trkpt>
      <trkpt lat="44.78854" lon="5.94007">
        <ele>1475.7</ele>
        <time>2018-06-28T07:20:30Z</time>
      </trkpt>
      <trkpt lat="44.78836" lon="5.94014">
        <ele>1474.75</ele>
        <time>2018-06-28T07:20:51Z</time>
      </trkpt>
      <trkpt lat="44.78817" lon="5.94015">
        <ele>1475.74</ele>
        <time>2018-06-28T07:21:13Z</time>
      </trkpt>
      <trkpt lat="44.78801" lon="5.94025">
        <ele>1479.77</ele>
        <time>2018-06-28T07:21:31Z</time>
      </trkpt>
      <trkpt lat="44.78782" lon="5.94026">
        <ele>1489.73</ele>
        <time>2018-06-28T07:22:37Z</time>
      </trkpt>
      <trkpt lat="44.78772" lon="5.94047">
        <ele>1481.7</ele>
        <time>2018-06-28T07:24:16Z</time>
      </trkpt>
      <trkpt lat="44.78762" lon="5.9407">
        <ele>1483.74</ele>
        <time>2018-06-28T07:24:34Z</time>
      </trkpt>
      <trkpt lat="44.78749" lon="5.94088">
        <ele>1487.89</ele>
        <time>2018-06-28T07:24:59Z</time>
      </trkpt>
      <trkpt lat="44.78737" lon="5.94107">
        <ele>1492.98</ele>
        <time>2018-06-28T07:25:22Z</time>
      </trkpt>
      <trkpt lat="44.78727" lon="5.94131">
        <ele>1493.93</ele>
        <time>2018-06-28T07:26:02Z</time>
      </trkpt>
      <trkpt lat="44.78718" lon="5.94153">
        <ele>1508.53</ele>
        <time>2018-06-28T07:26:50Z</time>
      </trkpt>
      <trkpt lat="44.78703" lon="5.94166">
        <ele>1513.56</ele>
        <time>2018-06-28T07:27:49Z</time>
      </trkpt>
      <trkpt lat="44.78687" lon="5.94179">
        <ele>1524.29</ele>
        <time>2018-06-28T07:29:01Z</time>
      </trkpt>
      <trkpt lat="44.78676" lon="5.942">
        <ele>1530.9</ele>
        <time>2018-06-28T07:30:02Z</time>
      </trkpt>
      <trkpt lat="44.78686" lon="5.94221">
        <ele>1539.51</ele>
        <time>2018-06-28T07:30:22Z</time>
      </trkpt>
      <trkpt lat="44.7868" lon="5.94245">
        <ele>1536.79</ele>
        <time>2018-06-28T07:30:48Z</time>
      </trkpt>
      <trkpt lat="44.78667" lon="5.94263">
        <ele>1547.6</ele>
        <time>2018-06-28T07:31:42Z</time>
      </trkpt>
      <trkpt lat="44.7865" lon="5.94273">
        <ele>1560.73</ele>
        <time>2018-06-28T07:32:41Z</time>
      </trkpt>
      <trkpt lat="44.78646" lon="5.943">
        <ele>1567.3</ele>
        <time>2018-06-28T07:33:19Z</time>
      </trkpt>
      <trkpt lat="44.78631" lon="5.94312">
        <ele>1567.74</ele>
        <time>2018-06-28T07:34:00Z</time>
      </trkpt>
      <trkpt lat="44.78612" lon="5.94315">
        <ele>1573.53</ele>
        <time>2018-06-28T07:34:18Z</time>
      </trkpt>
      <trkpt lat="44.78594" lon="5.94311">
        <ele>1576.5</ele>
        <time>2018-06-28T07:34:43Z</time>
      </trkpt>
      <trkpt lat="44.78576" lon="5.94312">
        <ele>1580.81</ele>
        <time>2018-06-28T07:35:12Z</time>
      </trkpt>
      <trkpt lat="44.78557" lon="5.94313">
        <ele>1588.38</ele>
        <time>2018-06-28T07:35:32Z</time>
      </trkpt>
      <trkpt lat="44.78539" lon="5.9431">
        <ele>1593.74</ele>
        <time>2018-06-28T07:36:01Z</time>
      </trkpt>
      <trkpt lat="44.78521" lon="5.94308">
        <ele>1594.3</ele>
        <time>2018-06-28T07:36:28Z</time>
      </trkpt>
      <trkpt lat="44.78503" lon="5.94316">
        <ele>1593.54</ele>
        <time>2018-06-28T07:37:33Z</time>
      </trkpt>
      <trkpt lat="44.78488" lon="5.94332">
        <ele>1590.74</ele>
        <time>2018-06-28T07:37:52Z</time>
      </trkpt>
      <trkpt lat="44.78477" lon="5.94353">
        <ele>1589.94</ele>
        <time>2018-06-28T07:38:10Z</time>
      </trkpt>
      <trkpt lat="44.78463" lon="5.94371">
        <ele>1589.54</ele>
        <time>2018-06-28T07:40:50Z</time>
      </trkpt>
      <trkpt lat="44.78447" lon="5.94386">
        <ele>1590.74</ele>
        <time>2018-06-28T07:41:14Z</time>
      </trkpt>
      <trkpt lat="44.78432" lon="5.94403">
        <ele>1582.74</ele>
        <time>2018-06-28T07:41:40Z</time>
      </trkpt>
      <trkpt lat="44.78416" lon="5.94416">
        <ele>1576.97</ele>
        <time>2018-06-28T07:42:07Z</time>
      </trkpt>
      <trkpt lat="44.78402" lon="5.94433">
        <ele>1567.97</ele>
        <time>2018-06-28T07:42:31Z</time>
      </trkpt>
      <trkpt lat="44.78385" lon="5.94444">
        <ele>1563.94</ele>
        <time>2018-06-28T07:42:52Z</time>
      </trkpt>
      <trkpt lat="44.78371" lon="5.94461">
        <ele>1561.74</ele>
        <time>2018-06-28T07:43:12Z</time>
      </trkpt>
      <trkpt lat="44.78357" lon="5.94477">
        <ele>1560.14</ele>
        <time>2018-06-28T07:43:28Z</time>
      </trkpt>
      <trkpt lat="44.78343" lon="5.94494">
        <ele>1558.98</ele>
        <time>2018-06-28T07:43:42Z</time>
      </trkpt>
      <trkpt lat="44.78328" lon="5.9451">
        <ele>1557.77</ele>
        <time>2018-06-28T07:43:59Z</time>
      </trkpt>
      <trkpt lat="44.7831" lon="5.94518">
        <ele>1553.74</ele>
        <time>2018-06-28T07:44:17Z</time>
      </trkpt>
      <trkpt lat="44.78296" lon="5.94535">
        <ele>1554.58</ele>
        <time>2018-06-28T07:44:35Z</time>
      </trkpt>
      <trkpt lat="44.78279" lon="5.94547">
        <ele>1551.74</ele>
        <time>2018-06-28T07:44:51Z</time>
      </trkpt>
      <trkpt lat="44.78262" lon="5.94558">
        <ele>1548.77</ele>
        <time>2018-06-28T07:45:09Z</time>
      </trkpt>
      <trkpt lat="44.78244" lon="5.94565">
        <ele>1546.55</ele>
        <time>2018-06-28T07:45:26Z</time>
      </trkpt>
      <trkpt lat="44.78228" lon="5.94578">
        <ele>1549.69</ele>
        <time>2018-06-28T07:45:40Z</time>
      </trkpt>
      <trkpt lat="44.78214" lon="5.94594">
        <ele>1551.9</ele>
        <time>2018-06-28T07:46:08Z</time>
      </trkpt>
      <trkpt lat="44.78196" lon="5.94603">
        <ele>1549.62</ele>
        <time>2018-06-28T07:46:33Z</time>
      </trkpt>
      <trkpt lat="44.78177" lon="5.94604">
        <ele>1549.75</ele>
        <time>2018-06-28T07:46:52Z</time>
      </trkpt>
      <trkpt lat="44.78159" lon="5.94607">
        <ele>1550.77</ele>
        <time>2018-06-28T07:47:39Z</time>
      </trkpt>
      <trkpt lat="44.78141" lon="5.94612">
        <ele>1539.53</ele>
        <time>2018-06-28T07:50:57Z</time>
      </trkpt>
      <trkpt lat="44.78123" lon="5.94607">
        <ele>1540.74</ele>
        <time>2018-06-28T07:51:09Z</time>
      </trkpt>
      <trkpt lat="44.78107" lon="5.94618">
        <ele>1543.17</ele>
        <time>2018-06-28T07:51:27Z</time>
      </trkpt>
      <trkpt lat="44.78088" lon="5.94628">
        <ele>1546.54</ele>
        <time>2018-06-28T07:51:40Z</time>
      </trkpt>
      <trkpt lat="44.78072" lon="5.94642">
        <ele>1551.53</ele>
        <time>2018-06-28T07:51:55Z</time>
      </trkpt>
      <trkpt lat="44.78054" lon="5.94649">
        <ele>1552.74</ele>
        <time>2018-06-28T07:52:22Z</time>
      </trkpt>
      <trkpt lat="44.78036" lon="5.94657">
        <ele>1545.55</ele>
        <time>2018-06-28T07:53:10Z</time>
      </trkpt>
      <trkpt lat="44.78022" lon="5.94673">
        <ele>1558.7</ele>
        <time>2018-06-28T07:53:34Z</time>
      </trkpt>
      <trkpt lat="44.78005" lon="5.94682">
        <ele>1561.87</ele>
        <time>2018-06-28T07:54:08Z</time>
      </trkpt>
      <trkpt lat="44.77996" lon="5.9466">
        <ele>1563.7</ele>
        <time>2018-06-28T07:55:10Z</time>
      </trkpt>
      <trkpt lat="44.77996" lon="5.94635">
        <ele>1572.72</ele>
        <time>2018-06-28T07:56:16Z</time>
      </trkpt>
      <trkpt lat="44.77978" lon="5.94633">
        <ele>1587.69</ele>
        <time>2018-06-28T07:57:25Z</time>
      </trkpt>
      <trkpt lat="44.7796" lon="5.9463">
        <ele>1593.75</ele>
        <time>2018-06-28T07:58:32Z</time>
      </trkpt>
      <trkpt lat="44.77942" lon="5.94628">
        <ele>1608.94</ele>
        <time>2018-06-28T07:59:26Z</time>
      </trkpt>
      <trkpt lat="44.77926" lon="5.94642">
        <ele>1617.67</ele>
        <time>2018-06-28T08:00:40Z</time>
      </trkpt>
      <trkpt lat="44.77912" lon="5.94659">
        <ele>1618.95</ele>
        <time>2018-06-28T08:01:02Z</time>
      </trkpt>
      <trkpt lat="44.77899" lon="5.94678">
        <ele>1623.73</ele>
        <time>2018-06-28T08:01:30Z</time>
      </trkpt>
      <trkpt lat="44.77887" lon="5.94696">
        <ele>1627.71</ele>
        <time>2018-06-28T08:02:11Z</time>
      </trkpt>
      <trkpt lat="44.7787" lon="5.94706">
        <ele>1631.57</ele>
        <time>2018-06-28T08:02:49Z</time>
      </trkpt>
      <trkpt lat="44.77856" lon="5.94723">
        <ele>1634.58</ele>
        <time>2018-06-28T08:03:24Z</time>
      </trkpt>
      <trkpt lat="44.77845" lon="5.94744">
        <ele>1647.74</ele>
        <time>2018-06-28T08:04:19Z</time>
      </trkpt>
      <trkpt lat="44.7783" lon="5.94759">
        <ele>1654.55</ele>
        <time>2018-06-28T08:04:50Z</time>
      </trkpt>
      <trkpt lat="44.77815" lon="5.94776">
        <ele>1658.69</ele>
        <time>2018-06-28T08:05:33Z</time>
      </trkpt>
      <trkpt lat="44.77803" lon="5.94796">
        <ele>1669.54</ele>
        <time>2018-06-28T08:06:22Z</time>
      </trkpt>
      <trkpt lat="44.7779" lon="5.94814">
        <ele>1677.53</ele>
        <time>2018-06-28T08:07:01Z</time>
      </trkpt>
      <trkpt lat="44.77779" lon="5.94835">
        <ele>1690.98</ele>
        <time>2018-06-28T08:08:00Z</time>
      </trkpt>
      <trkpt lat="44.77772" lon="5.94858">
        <ele>1701.77</ele>
        <time>2018-06-28T08:08:40Z</time>
      </trkpt>
      <trkpt lat="44.77758" lon="5.94876">
        <ele>1698.77</ele>
        <time>2018-06-28T08:09:12Z</time>
      </trkpt>
      <trkpt lat="44.77748" lon="5.94898">
        <ele>1710.75</ele>
        <time>2018-06-28T08:09:48Z</time>
      </trkpt>
      <trkpt lat="44.77739" lon="5.94921">
        <ele>1714.78</ele>
        <time>2018-06-28T08:10:36Z</time>
      </trkpt>
      <trkpt lat="44.77727" lon="5.94941">
        <ele>1719.74</ele>
        <time>2018-06-28T08:11:11Z</time>
      </trkpt>
      <trkpt lat="44.77713" lon="5.94959">
        <ele>1726.82</ele>
        <time>2018-06-28T08:13:16Z</time>
      </trkpt>
      <trkpt lat="44.77699" lon="5.94977">
        <ele>1727.97</ele>
        <time>2018-06-28T08:13:50Z</time>
      </trkpt>
      <trkpt lat="44.77687" lon="5.94996">
        <ele>1737.7</ele>
        <time>2018-06-28T08:14:27Z</time>
      </trkpt>
      <trkpt lat="44.77668" lon="5.95">
        <ele>1735.73</ele>
        <time>2018-06-28T08:15:00Z</time>
      </trkpt>
      <trkpt lat="44.77651" lon="5.95009">
        <ele>1730.77</ele>
        <time>2018-06-28T08:15:24Z</time>
      </trkpt>
      <trkpt lat="44.77634" lon="5.9502">
        <ele>1735.58</ele>
        <time>2018-06-28T08:15:53Z</time>
      </trkpt>
      <trkpt lat="44.77616" lon="5.95026">
        <ele>1731.95</ele>
        <time>2018-06-28T08:16:23Z</time>
      </trkpt>
      <trkpt lat="44.77598" lon="5.95031">
        <ele>1720.06</ele>
        <time>2018-06-28T08:17:04Z</time>
      </trkpt>
      <trkpt lat="44.77577" lon="5.95032">
        <ele>1731.74</ele>
        <time>2018-06-28T08:17:41Z</time>
      </trkpt>
      <trkpt lat="44.77558" lon="5.95031">
        <ele>1732.07</ele>
        <time>2018-06-28T08:18:00Z</time>
      </trkpt>
      <trkpt lat="44.77541" lon="5.95037">
        <ele>1735.52</ele>
        <time>2018-06-28T08:18:31Z</time>
      </trkpt>
      <trkpt lat="44.77523" lon="5.95049">
        <ele>1744.94</ele>
        <time>2018-06-28T08:19:04Z</time>
      </trkpt>
      <trkpt lat="44.77506" lon="5.95042">
        <ele>1753.71</ele>
        <time>2018-06-28T08:19:59Z</time>
      </trkpt>
      <trkpt lat="44.77488" lon="5.95038">
        <ele>1763.49</ele>
        <time>2018-06-28T08:21:02Z</time>
      </trkpt>
      <trkpt lat="44.77471" lon="5.95048">
        <ele>1775.58</ele>
        <time>2018-06-28T08:21:50Z</time>
      </trkpt>
      <trkpt lat="44.7747" lon="5.95074">
        <ele>1772.74</ele>
        <time>2018-06-28T08:22:58Z</time>
      </trkpt>
      <trkpt lat="44.77466" lon="5.95098">
        <ele>1769.82</ele>
        <time>2018-06-28T08:23:36Z</time>
      </trkpt>
      <trkpt lat="44.77469" lon="5.95126">
        <ele>1764.12</ele>
        <time>2018-06-28T08:24:29Z</time>
      </trkpt>
      <trkpt lat="44.77458" lon="5.95146">
        <ele>1757.79</ele>
        <time>2018-06-28T08:25:05Z</time>
      </trkpt>
      <trkpt lat="44.77465" lon="5.9517">
        <ele>1749.61</ele>
        <time>2018-06-28T08:25:57Z</time>
      </trkpt>
      <trkpt lat="44.7746" lon="5.95194">
        <ele>1744.74</ele>
        <time>2018-06-28T08:27:51Z</time>
      </trkpt>
      <trkpt lat="44.77453" lon="5.9522">
        <ele>1728.75</ele>
        <time>2018-06-28T08:32:19Z</time>
      </trkpt>
      <trkpt lat="44.77438" lon="5.95234">
        <ele>1716.78</ele>
        <time>2018-06-28T08:33:27Z</time>
      </trkpt>
      <trkpt lat="44.7742" lon="5.95244">
        <ele>1736.78</ele>
        <time>2018-06-28T08:35:02Z</time>
      </trkpt>
      <trkpt lat="44.77403" lon="5.95235">
        <ele>1753.89</ele>
        <time>2018-06-28T08:36:45Z</time>
      </trkpt>
      <trkpt lat="44.77384" lon="5.95235">
        <ele>1754.98</ele>
        <time>2018-06-28T08:37:55Z</time>
      </trkpt>
      <trkpt lat="44.77366" lon="5.95239">
        <ele>1758.54</ele>
        <time>2018-06-28T08:38:48Z</time>
      </trkpt>
      <trkpt lat="44.77377" lon="5.95219">
        <ele>1765.73</ele>
        <time>2018-06-28T08:39:53Z</time>
      </trkpt>
      <trkpt lat="44.77393" lon="5.95208">
        <ele>1771.93</ele>
        <time>2018-06-28T08:43:06Z</time>
      </trkpt>
      <trkpt lat="44.77394" lon="5.95183">
        <ele>1776.82</ele>
        <time>2018-06-28T08:45:13Z</time>
      </trkpt>
      <trkpt lat="44.77413" lon="5.95183">
        <ele>1780.3</ele>
        <time>2018-06-28T08:45:20Z</time>
      </trkpt>
      <trkpt lat="44.7742" lon="5.9516">
        <ele>1801.74</ele>
        <time>2018-06-28T08:51:10Z</time>
      </trkpt>
      <trkpt lat="44.77406" lon="5.95142">
        <ele>1838.69</ele>
        <time>2018-06-28T08:54:49Z</time>
      </trkpt>
      <trkpt lat="44.77391" lon="5.95156">
        <ele>1850.66</ele>
        <time>2018-06-28T08:55:41Z</time>
      </trkpt>
      <trkpt lat="44.77376" lon="5.95172">
        <ele>1853.94</ele>
        <time>2018-06-28T08:57:02Z</time>
      </trkpt>
      <trkpt lat="44.7736" lon="5.95158">
        <ele>1851.26</ele>
        <time>2018-06-28T09:01:11Z</time>
      </trkpt>
      <trkpt lat="44.77342" lon="5.95151">
        <ele>1836.99</ele>
        <time>2018-06-28T09:02:26Z</time>
      </trkpt>
      <trkpt lat="44.77326" lon="5.95138">
        <ele>1831.14</ele>
        <time>2018-06-28T09:06:28Z</time>
      </trkpt>
      <trkpt lat="44.77314" lon="5.95116">
        <ele>1829.65</ele>
        <time>2018-06-28T09:08:07Z</time>
      </trkpt>
      <trkpt lat="44.77295" lon="5.95111">
        <ele>1826.39</ele>
        <time>2018-06-28T09:08:26Z</time>
      </trkpt>
      <trkpt lat="44.77284" lon="5.95132">
        <ele>1849.49</ele>
        <time>2018-06-28T09:10:57Z</time>
      </trkpt>
      <trkpt lat="44.77265" lon="5.95132">
        <ele>1841.29</ele>
        <time>2018-06-28T09:11:54Z</time>
      </trkpt>
      <trkpt lat="44.77265" lon="5.95157">
        <ele>1851.88</ele>
        <time>2018-06-28T09:12:20Z</time>
      </trkpt>
      <trkpt lat="44.77252" lon="5.95176">
        <ele>1862.49</ele>
        <time>2018-06-28T09:13:31Z</time>
      </trkpt>
      <trkpt lat="44.77248" lon="5.95202">
        <ele>1873.74</ele>
        <time>2018-06-28T09:14:06Z</time>
      </trkpt>
      <trkpt lat="44.7726" lon="5.95222">
        <ele>1899.34</ele>
        <time>2018-06-28T09:14:54Z</time>
      </trkpt>
      <trkpt lat="44.7726" lon="5.95248">
        <ele>1916.54</ele>
        <time>2018-06-28T09:16:16Z</time>
      </trkpt>
      <trkpt lat="44.77278" lon="5.95249">
        <ele>1930.54</ele>
        <time>2018-06-28T09:16:32Z</time>
      </trkpt>
      <trkpt lat="44.77283" lon="5.95276">
        <ele>1932.69</ele>
        <time>2018-06-28T09:21:22Z</time>
      </trkpt>
      <trkpt lat="44.77265" lon="5.95282">
        <ele>1920.94</ele>
        <time>2018-06-28T09:21:37Z</time>
      </trkpt>
      <trkpt lat="44.77246" lon="5.95287">
        <ele>1925.1</ele>
        <time>2018-06-28T09:23:45Z</time>
      </trkpt>
      <trkpt lat="44.77228" lon="5.95292">
        <ele>1931.73</ele>
        <time>2018-06-28T09:24:39Z</time>
      </trkpt>
      <trkpt lat="44.77251" lon="5.95299">
        <ele>1944.65</ele>
        <time>2018-06-28T09:25:16Z</time>
      </trkpt>
      <trkpt lat="44.77237" lon="5.9532">
        <ele>1993.54</ele>
        <time>2018-06-28T09:36:59Z</time>
      </trkpt>
      <trkpt lat="44.77219" lon="5.95328">
        <ele>2004.82</ele>
        <time>2018-06-28T09:37:40Z</time>
      </trkpt>
      <trkpt lat="44.77203" lon="5.95317">
        <ele>1998.74</ele>
        <time>2018-06-28T09:40:53Z</time>
      </trkpt>
      <trkpt lat="44.77188" lon="5.95334">
        <ele>2038.78</ele>
        <time>2018-06-28T09:43:31Z</time>
      </trkpt>
      <trkpt lat="44.77177" lon="5.95354">
        <ele>2040.74</ele>
        <time>2018-06-28T09:47:27Z</time>
      </trkpt>
      <trkpt lat="44.77159" lon="5.95356">
        <ele>2048.54</ele>
        <time>2018-06-28T09:49:00Z</time>
      </trkpt>
      <trkpt lat="44.77171" lon="5.95337">
        <ele>2059.55</ele>
        <time>2018-06-28T09:54:25Z</time>
      </trkpt>
      <trkpt lat="44.77185" lon="5.95322">
        <ele>2037.79</ele>
        <time>2018-06-28T09:58:09Z</time>
      </trkpt>
      <trkpt lat="44.77178" lon="5.95297">
        <ele>2049.78</ele>
        <time>2018-06-28T10:02:13Z</time>
      </trkpt>
      <trkpt lat="44.77195" lon="5.95286">
        <ele>2063.13</ele>
        <time>2018-06-28T10:05:50Z</time>
      </trkpt>
      <trkpt lat="44.77179" lon="5.95276">
        <ele>2066.56</ele>
        <time>2018-06-28T10:07:08Z</time>
      </trkpt>
      <trkpt lat="44.7716" lon="5.95275">
        <ele>2076.66</ele>
        <time>2018-06-28T10:08:18Z</time>
      </trkpt>
      <trkpt lat="44.77177" lon="5.95265">
        <ele>2089.74</ele>
        <time>2018-06-28T10:09:12Z</time>
      </trkpt>
      <trkpt lat="44.77177" lon="5.95238">
        <ele>2090.69</ele>
        <time>2018-06-28T10:11:23Z</time>
      </trkpt>
      <trkpt lat="44.77189" lon="5.95219">
        <ele>2069.58</ele>
        <time>2018-06-28T10:12:07Z</time>
      </trkpt>
      <trkpt lat="44.77202" lon="5.952">
        <ele>2052.7</ele>
        <time>2018-06-28T10:13:30Z</time>
      </trkpt>
      <trkpt lat="44.772" lon="5.95174">
        <ele>2047.7</ele>
        <time>2018-06-28T10:14:14Z</time>
      </trkpt>
      <trkpt lat="44.77205" lon="5.9515">
        <ele>2032.53</ele>
        <time>2018-06-28T10:15:39Z</time>
      </trkpt>
      <trkpt lat="44.77191" lon="5.95133">
        <ele>2014.54</ele>
        <time>2018-06-28T10:16:56Z</time>
      </trkpt>
      <trkpt lat="44.77193" lon="5.95107">
        <ele>1989.7</ele>
        <time>2018-06-28T10:18:19Z</time>
      </trkpt>
      <trkpt lat="44.77197" lon="5.9508">
        <ele>1987.3</ele>
        <time>2018-06-28T10:18:44Z</time>
      </trkpt>
      <trkpt lat="44.7718" lon="5.95092">
        <ele>1972.78</ele>
        <time>2018-06-28T10:20:18Z</time>
      </trkpt>
      <trkpt lat="44.77161" lon="5.95085">
        <ele>1972.7</ele>
        <time>2018-06-28T10:20:58Z</time>
      </trkpt>
      <trkpt lat="44.7717" lon="5.95063">
        <ele>1961.54</ele>
        <time>2018-06-28T10:22:15Z</time>
      </trkpt>
      <trkpt lat="44.77157" lon="5.95044">
        <ele>1951.5</ele>
        <time>2018-06-28T10:23:14Z</time>
      </trkpt>
      <trkpt lat="44.77143" lon="5.95028">
        <ele>1935.66</ele>
        <time>2018-06-28T10:24:25Z</time>
      </trkpt>
      <trkpt lat="44.77144" lon="5.95002">
        <ele>1928.78</ele>
        <time>2018-06-28T10:25:22Z</time>
      </trkpt>
      <trkpt lat="44.77126" lon="5.95006">
        <ele>1925.5</ele>
        <time>2018-06-28T10:25:40Z</time>
      </trkpt>
      <trkpt lat="44.77115" lon="5.94987">
        <ele>1921.5</ele>
        <time>2018-06-28T10:27:54Z</time>
      </trkpt>
      <trkpt lat="44.77094" lon="5.94985">
        <ele>1913.99</ele>
        <time>2018-06-28T10:28:43Z</time>
      </trkpt>
      <trkpt lat="44.77076" lon="5.94991">
        <ele>1914.58</ele>
        <time>2018-06-28T10:32:49Z</time>
      </trkpt>
      <trkpt lat="44.77061" lon="5.95006">
        <ele>1910.1</ele>
        <time>2018-06-28T10:33:11Z</time>
      </trkpt>
      <trkpt lat="44.77042" lon="5.95008">
        <ele>1911.34</ele>
        <time>2018-06-28T10:33:51Z</time>
      </trkpt>
      <trkpt lat="44.77024" lon="5.95003">
        <ele>1915.53</ele>
        <time>2018-06-28T10:34:09Z</time>
      </trkpt>
      <trkpt lat="44.77012" lon="5.94984">
        <ele>1920.73</ele>
        <time>2018-06-28T10:34:41Z</time>
      </trkpt>
      <trkpt lat="44.76999" lon="5.94965">
        <ele>1918.54</ele>
        <time>2018-06-28T10:35:24Z</time>
      </trkpt>
      <trkpt lat="44.76981" lon="5.94962">
        <ele>1917.54</ele>
        <time>2018-06-28T10:35:52Z</time>
      </trkpt>
      <trkpt lat="44.76971" lon="5.9494">
        <ele>1923.49</ele>
        <time>2018-06-28T10:36:42Z</time>
      </trkpt>
      <trkpt lat="44.76953" lon="5.94938">
        <ele>1911.95</ele>
        <time>2018-06-28T10:39:44Z</time>
      </trkpt>
      <trkpt lat="44.76934" lon="5.94933">
        <ele>1907.33</ele>
        <time>2018-06-28T10:40:26Z</time>
      </trkpt>
      <trkpt lat="44.76923" lon="5.94912">
        <ele>1897.71</ele>
        <time>2018-06-28T10:41:07Z</time>
      </trkpt>
      <trkpt lat="44.76934" lon="5.94891">
        <ele>1888.91</ele>
        <time>2018-06-28T10:41:50Z</time>
      </trkpt>
      <trkpt lat="44.76949" lon="5.94876">
        <ele>1880.96</ele>
        <time>2018-06-28T10:42:35Z</time>
      </trkpt>
      <trkpt lat="44.76938" lon="5.94855">
        <ele>1876.39</ele>
        <time>2018-06-28T10:43:06Z</time>
      </trkpt>
      <trkpt lat="44.76937" lon="5.9483">
        <ele>1848.75</ele>
        <time>2018-06-28T10:44:30Z</time>
      </trkpt>
      <trkpt lat="44.76932" lon="5.94805">
        <ele>1843.58</ele>
        <time>2018-06-28T10:45:21Z</time>
      </trkpt>
      <trkpt lat="44.76929" lon="5.9478">
        <ele>1839.95</ele>
        <time>2018-06-28T10:46:00Z</time>
      </trkpt>
      <trkpt lat="44.76924" lon="5.94755">
        <ele>1845.53</ele>
        <time>2018-06-28T10:47:08Z</time>
      </trkpt>
      <trkpt lat="44.76904" lon="5.94755">
        <ele>1842.74</ele>
        <time>2018-06-28T10:49:42Z</time>
      </trkpt>
      <trkpt lat="44.76885" lon="5.94755">
        <ele>1837.03</ele>
        <time>2018-06-28T10:49:48Z</time>
      </trkpt>
      <trkpt lat="44.76867" lon="5.94742">
        <ele>1838.87</ele>
        <time>2018-06-28T10:53:37Z</time>
      </trkpt>
      <trkpt lat="44.76849" lon="5.94737">
        <ele>1843.51</ele>
        <time>2018-06-28T10:54:31Z</time>
      </trkpt>
      <trkpt lat="44.76831" lon="5.94731">
        <ele>1856.74</ele>
        <time>2018-06-28T10:54:57Z</time>
      </trkpt>
      <trkpt lat="44.76813" lon="5.94728">
        <ele>1858.93</ele>
        <time>2018-06-28T10:55:35Z</time>
      </trkpt>
      <trkpt lat="44.76795" lon="5.94732">
        <ele>1860.5</ele>
        <time>2018-06-28T10:56:06Z</time>
      </trkpt>
      <trkpt lat="44.76778" lon="5.94723">
        <ele>1868.71</ele>
        <time>2018-06-28T10:56:36Z</time>
      </trkpt>
      <trkpt lat="44.76766" lon="5.94703">
        <ele>1881.53</ele>
        <time>2018-06-28T10:57:11Z</time>
      </trkpt>
      <trkpt lat="44.76753" lon="5.94686">
        <ele>1882.1</ele>
        <time>2018-06-28T10:57:35Z</time>
      </trkpt>
      <trkpt lat="44.7674" lon="5.94668">
        <ele>1885.59</ele>
        <time>2018-06-28T10:58:14Z</time>
      </trkpt>
      <trkpt lat="44.76722" lon="5.94658">
        <ele>1891.49</ele>
        <time>2018-06-28T10:58:48Z</time>
      </trkpt>
      <trkpt lat="44.76706" lon="5.94647">
        <ele>1904.74</ele>
        <time>2018-06-28T11:00:41Z</time>
      </trkpt>
      <trkpt lat="44.76692" lon="5.9463">
        <ele>1911.9</ele>
        <time>2018-06-28T11:01:29Z</time>
      </trkpt>
      <trkpt lat="44.76674" lon="5.9463">
        <ele>1920.74</ele>
        <time>2018-06-28T11:02:46Z</time>
      </trkpt>
      <trkpt lat="44.76661" lon="5.94611">
        <ele>1928.65</ele>
        <time>2018-06-28T11:03:51Z</time>
      </trkpt>
      <trkpt lat="44.7665" lon="5.9459">
        <ele>1935.7</ele>
        <time>2018-06-28T11:04:33Z</time>
      </trkpt>
      <trkpt lat="44.76651" lon="5.94564">
        <ele>1941.73</ele>
        <time>2018-06-28T11:05:02Z</time>
      </trkpt>
      <trkpt lat="44.76641" lon="5.94542">
        <ele>1950.1</ele>
        <time>2018-06-28T11:06:06Z</time>
      </trkpt>
      <trkpt lat="44.76631" lon="5.94521">
        <ele>1954.62</ele>
        <time>2018-06-28T11:06:35Z</time>
      </trkpt>
      <trkpt lat="44.76625" lon="5.94546">
        <ele>1955.34</ele>
        <time>2018-06-28T11:15:04Z</time>
      </trkpt>
      <trkpt lat="44.7662" lon="5.94571">
        <ele>1951.74</ele>
        <time>2018-06-28T11:15:27Z</time>
      </trkpt>
      <trkpt lat="44.76611" lon="5.94593">
        <ele>1959.5</ele>
        <time>2018-06-28T11:15:41Z</time>
      </trkpt>
      <trkpt lat="44.76604" lon="5.94618">
        <ele>1955.96</ele>
        <time>2018-06-28T11:16:03Z</time>
      </trkpt>
      <trkpt lat="44.76588" lon="5.94631">
        <ele>1955.74</ele>
        <time>2018-06-28T11:16:21Z</time>
      </trkpt>
      <trkpt lat="44.76573" lon="5.94646">
        <ele>1951.9</ele>
        <time>2018-06-28T11:16:39Z</time>
      </trkpt>
      <trkpt lat="44.76574" lon="5.94672">
        <ele>1948.7</ele>
        <time>2018-06-28T11:17:01Z</time>
      </trkpt>
      <trkpt lat="44.76588" lon="5.94691">
        <ele>1958.74</ele>
        <time>2018-06-28T11:17:28Z</time>
      </trkpt>
      <trkpt lat="44.76595" lon="5.94714">
        <ele>1959.74</ele>
        <time>2018-06-28T11:17:56Z</time>
      </trkpt>
      <trkpt lat="44.76602" lon="5.94739">
        <ele>1957.33</ele>
        <time>2018-06-28T11:18:27Z</time>
      </trkpt>
      <trkpt lat="44.76614" lon="5.9476">
        <ele>1977.14</ele>
        <time>2018-06-28T11:19:02Z</time>
      </trkpt>
      <trkpt lat="44.76629" lon="5.94776">
        <ele>1980.73</ele>
        <time>2018-06-28T11:19:39Z</time>
      </trkpt>
      <trkpt lat="44.76644" lon="5.94792">
        <ele>1986.82</ele>
        <time>2018-06-28T11:20:08Z</time>
      </trkpt>
      <trkpt lat="44.76649" lon="5.94817">
        <ele>1975.63</ele>
        <time>2018-06-28T11:20:26Z</time>
      </trkpt>
      <trkpt lat="44.76644" lon="5.94842">
        <ele>1977.66</ele>
        <time>2018-06-28T11:20:53Z</time>
      </trkpt>
      <trkpt lat="44.76642" lon="5.94868">
        <ele>1979.54</ele>
        <time>2018-06-28T11:21:40Z</time>
      </trkpt>
      <trkpt lat="44.76652" lon="5.94889">
        <ele>1994.7</ele>
        <time>2018-06-28T11:22:28Z</time>
      </trkpt>
      <trkpt lat="44.76668" lon="5.94903">
        <ele>1998.98</ele>
        <time>2018-06-28T11:23:33Z</time>
      </trkpt>
      <trkpt lat="44.76687" lon="5.94902">
        <ele>2013.82</ele>
        <time>2018-06-28T11:24:10Z</time>
      </trkpt>
      <trkpt lat="44.76703" lon="5.94912">
        <ele>2013.74</ele>
        <time>2018-06-28T11:25:44Z</time>
      </trkpt>
      <trkpt lat="44.76689" lon="5.94928">
        <ele>2023.74</ele>
        <time>2018-06-28T11:26:28Z</time>
      </trkpt>
      <trkpt lat="44.76674" lon="5.94944">
        <ele>2031.77</ele>
        <time>2018-06-28T11:29:14Z</time>
      </trkpt>
      <trkpt lat="44.7666" lon="5.94959">
        <ele>2035.75</ele>
        <time>2018-06-28T11:30:01Z</time>
      </trkpt>
      <trkpt lat="44.76675" lon="5.94972">
        <ele>2046.74</ele>
        <time>2018-06-28T11:31:11Z</time>
      </trkpt>
      <trkpt lat="44.76693" lon="5.94978">
        <ele>2056.94</ele>
        <time>2018-06-28T11:31:50Z</time>
      </trkpt>
      <trkpt lat="44.76711" lon="5.94987">
        <ele>2058.86</ele>
        <time>2018-06-28T11:32:23Z</time>
      </trkpt>
      <trkpt lat="44.76728" lon="5.94992">
        <ele>2068.94</ele>
        <time>2018-06-28T11:33:18Z</time>
      </trkpt>
      <trkpt lat="44.76746" lon="5.94998">
        <ele>2073.9</ele>
        <time>2018-06-28T11:34:07Z</time>
      </trkpt>
      <trkpt lat="44.76754" lon="5.95022">
        <ele>2071.95</ele>
        <time>2018-06-28T11:35:55Z</time>
      </trkpt>
      <trkpt lat="44.76741" lon="5.95039">
        <ele>2095.73</ele>
        <time>2018-06-28T11:37:33Z</time>
      </trkpt>
      <trkpt lat="44.76729" lon="5.95059">
        <ele>2095.74</ele>
        <time>2018-06-28T11:38:26Z</time>
      </trkpt>
      <trkpt lat="44.76741" lon="5.95079">
        <ele>2107.69</ele>
        <time>2018-06-28T11:39:35Z</time>
      </trkpt>
      <trkpt lat="44.76736" lon="5.95104">
        <ele>2112.54</ele>
        <time>2018-06-28T11:41:19Z</time>
      </trkpt>
      <trkpt lat="44.76734" lon="5.95129">
        <ele>2147.7</ele>
        <time>2018-06-28T11:43:46Z</time>
      </trkpt>
      <trkpt lat="44.76749" lon="5.95145">
        <ele>2150.53</ele>
        <time>2018-06-28T11:44:56Z</time>
      </trkpt>
      <trkpt lat="44.76736" lon="5.95162">
        <ele>2154.87</ele>
        <time>2018-06-28T11:46:05Z</time>
      </trkpt>
      <trkpt lat="44.76719" lon="5.95171">
        <ele>2167.95</ele>
        <time>2018-06-28T11:47:03Z</time>
      </trkpt>
      <trkpt lat="44.76703" lon="5.95185">
        <ele>2179.74</ele>
        <time>2018-06-28T11:47:52Z</time>
      </trkpt>
      <trkpt lat="44.76686" lon="5.95193">
        <ele>2187.51</ele>
        <time>2018-06-28T11:48:45Z</time>
      </trkpt>
      <trkpt lat="44.76674" lon="5.95212">
        <ele>2187.95</ele>
        <time>2018-06-28T11:49:45Z</time>
      </trkpt>
      <trkpt lat="44.76685" lon="5.95232">
        <ele>2200.94</ele>
        <time>2018-06-28T11:51:35Z</time>
      </trkpt>
      <trkpt lat="44.76704" lon="5.95235">
        <ele>2209.74</ele>
        <time>2018-06-28T11:52:20Z</time>
      </trkpt>
      <trkpt lat="44.76722" lon="5.95241">
        <ele>2213.76</ele>
        <time>2018-06-28T11:52:44Z</time>
      </trkpt>
      <trkpt lat="44.76737" lon="5.95255">
        <ele>2227.33</ele>
        <time>2018-06-28T11:54:12Z</time>
      </trkpt>
      <trkpt lat="44.76755" lon="5.95263">
        <ele>2227.06</ele>
        <time>2018-06-28T11:54:58Z</time>
      </trkpt>
      <trkpt lat="44.76773" lon="5.95266">
        <ele>2231.32</ele>
        <time>2018-06-28T11:55:18Z</time>
      </trkpt>
      <trkpt lat="44.76791" lon="5.95263">
        <ele>2228.74</ele>
        <time>2018-06-28T11:55:46Z</time>
      </trkpt>
      <trkpt lat="44.76773" lon="5.95263">
        <ele>2231.95</ele>
        <time>2018-06-28T12:01:49Z</time>
      </trkpt>
      <trkpt lat="44.76755" lon="5.95257">
        <ele>2233.95</ele>
        <time>2018-06-28T12:02:22Z</time>
      </trkpt>
      <trkpt lat="44.76736" lon="5.95254">
        <ele>2225.78</ele>
        <time>2018-06-28T12:02:44Z</time>
      </trkpt>
      <trkpt lat="44.76718" lon="5.95251">
        <ele>2218.71</ele>
        <time>2018-06-28T12:04:28Z</time>
      </trkpt>
      <trkpt lat="44.767" lon="5.95246">
        <ele>2214.6</ele>
        <time>2018-06-28T12:04:52Z</time>
      </trkpt>
      <trkpt lat="44.76682" lon="5.95245">
        <ele>2212.74</ele>
        <time>2018-06-28T12:05:15Z</time>
      </trkpt>
      <trkpt lat="44.76663" lon="5.95243">
        <ele>2213.78</ele>
        <time>2018-06-28T12:05:33Z</time>
      </trkpt>
      <trkpt lat="44.76645" lon="5.95237">
        <ele>2211.78</ele>
        <time>2018-06-28T12:05:51Z</time>
      </trkpt>
      <trkpt lat="44.76627" lon="5.95233">
        <ele>2210.6</ele>
        <time>2018-06-28T12:06:12Z</time>
      </trkpt>
      <trkpt lat="44.76608" lon="5.95227">
        <ele>2206.35</ele>
        <time>2018-06-28T12:06:33Z</time>
      </trkpt>
      <trkpt lat="44.7659" lon="5.95223">
        <ele>2204.75</ele>
        <time>2018-06-28T12:06:57Z</time>
      </trkpt>
      <trkpt lat="44.76576" lon="5.95206">
        <ele>2194.95</ele>
        <time>2018-06-28T12:07:26Z</time>
      </trkpt>
      <trkpt lat="44.76558" lon="5.95201">
        <ele>2184.58</ele>
        <time>2018-06-28T12:07:59Z</time>
      </trkpt>
      <trkpt lat="44.76566" lon="5.95177">
        <ele>2174.78</ele>
        <time>2018-06-28T12:09:01Z</time>
      </trkpt>
      <trkpt lat="44.76578" lon="5.95158">
        <ele>2170.89</ele>
        <time>2018-06-28T12:09:30Z</time>
      </trkpt>
      <trkpt lat="44.7659" lon="5.95138">
        <ele>2167.59</ele>
        <time>2018-06-28T12:09:59Z</time>
      </trkpt>
      <trkpt lat="44.76607" lon="5.95125">
        <ele>2150.94</ele>
        <time>2018-06-28T12:10:50Z</time>
      </trkpt>
      <trkpt lat="44.76603" lon="5.95099">
        <ele>2138.78</ele>
        <time>2018-06-28T12:12:17Z</time>
      </trkpt>
      <trkpt lat="44.76585" lon="5.95093">
        <ele>2128.57</ele>
        <time>2018-06-28T12:13:07Z</time>
      </trkpt>
      <trkpt lat="44.76567" lon="5.95082">
        <ele>2134.53</ele>
        <time>2018-06-28T12:13:23Z</time>
      </trkpt>
      <trkpt lat="44.76548" lon="5.9508">
        <ele>2130.54</ele>
        <time>2018-06-28T12:13:46Z</time>
      </trkpt>
      <trkpt lat="44.7653" lon="5.95074">
        <ele>2124.5</ele>
        <time>2018-06-28T12:14:11Z</time>
      </trkpt>
      <trkpt lat="44.76514" lon="5.95063">
        <ele>2127.52</ele>
        <time>2018-06-28T12:14:26Z</time>
      </trkpt>
      <trkpt lat="44.76496" lon="5.95051">
        <ele>2112.33</ele>
        <time>2018-06-28T12:15:01Z</time>
      </trkpt>
      <trkpt lat="44.76501" lon="5.95026">
        <ele>2107.59</ele>
        <time>2018-06-28T12:15:20Z</time>
      </trkpt>
      <trkpt lat="44.76515" lon="5.95009">
        <ele>2099.78</ele>
        <time>2018-06-28T12:15:45Z</time>
      </trkpt>
      <trkpt lat="44.76506" lon="5.94985">
        <ele>2076.69</ele>
        <time>2018-06-28T12:16:34Z</time>
      </trkpt>
      <trkpt lat="44.765" lon="5.94961">
        <ele>2078.95</ele>
        <time>2018-06-28T12:16:48Z</time>
      </trkpt>
      <trkpt lat="44.76501" lon="5.94934">
        <ele>2051.73</ele>
        <time>2018-06-28T12:17:20Z</time>
      </trkpt>
      <trkpt lat="44.76507" lon="5.9491">
        <ele>2047.75</ele>
        <time>2018-06-28T12:17:48Z</time>
      </trkpt>
      <trkpt lat="44.76511" lon="5.94884">
        <ele>2045.74</ele>
        <time>2018-06-28T12:18:09Z</time>
      </trkpt>
      <trkpt lat="44.7652" lon="5.9486">
        <ele>2041.55</ele>
        <time>2018-06-28T12:18:28Z</time>
      </trkpt>
      <trkpt lat="44.76526" lon="5.94835">
        <ele>2032.76</ele>
        <time>2018-06-28T12:18:59Z</time>
      </trkpt>
      <trkpt lat="44.76537" lon="5.94813">
        <ele>2018.91</ele>
        <time>2018-06-28T12:19:20Z</time>
      </trkpt>
      <trkpt lat="44.76552" lon="5.948">
        <ele>1998.78</ele>
        <time>2018-06-28T12:19:50Z</time>
      </trkpt>
      <trkpt lat="44.76562" lon="5.94778">
        <ele>2006.27</ele>
        <time>2018-06-28T12:20:21Z</time>
      </trkpt>
      <trkpt lat="44.76558" lon="5.94752">
        <ele>1995.7</ele>
        <time>2018-06-28T12:21:29Z</time>
      </trkpt>
      <trkpt lat="44.76553" lon="5.94727">
        <ele>1985.71</ele>
        <time>2018-06-28T12:21:51Z</time>
      </trkpt>
      <trkpt lat="44.76547" lon="5.94703">
        <ele>1984.75</ele>
        <time>2018-06-28T12:22:10Z</time>
      </trkpt>
      <trkpt lat="44.76544" lon="5.94678">
        <ele>1973.53</ele>
        <time>2018-06-28T12:22:43Z</time>
      </trkpt>
      <trkpt lat="44.76544" lon="5.94653">
        <ele>1971.59</ele>
        <time>2018-06-28T12:23:05Z</time>
      </trkpt>
      <trkpt lat="44.76556" lon="5.94632">
        <ele>1971.7</ele>
        <time>2018-06-28T12:23:23Z</time>
      </trkpt>
      <trkpt lat="44.76568" lon="5.94612">
        <ele>1974.52</ele>
        <time>2018-06-28T12:23:44Z</time>
      </trkpt>
      <trkpt lat="44.7658" lon="5.94593">
        <ele>1968.98</ele>
        <time>2018-06-28T12:24:01Z</time>
      </trkpt>
      <trkpt lat="44.76595" lon="5.94575">
        <ele>1963.9</ele>
        <time>2018-06-28T12:24:18Z</time>
      </trkpt>
      <trkpt lat="44.7661" lon="5.94558">
        <ele>1958.71</ele>
        <time>2018-06-28T12:24:42Z</time>
      </trkpt>
      <trkpt lat="44.76618" lon="5.94535">
        <ele>1957.78</ele>
        <time>2018-06-28T12:25:01Z</time>
      </trkpt>
      <trkpt lat="44.76627" lon="5.94513">
        <ele>1956.71</ele>
        <time>2018-06-28T12:25:23Z</time>
      </trkpt>
      <trkpt lat="44.76611" lon="5.945">
        <ele>1958.74</ele>
        <time>2018-06-28T12:47:37Z</time>
      </trkpt>
      <trkpt lat="44.76599" lon="5.9448">
        <ele>1956.75</ele>
        <time>2018-06-28T12:48:08Z</time>
      </trkpt>
      <trkpt lat="44.76583" lon="5.94469">
        <ele>1952.93</ele>
        <time>2018-06-28T12:48:32Z</time>
      </trkpt>
      <trkpt lat="44.76564" lon="5.94466">
        <ele>1954.74</ele>
        <time>2018-06-28T12:48:54Z</time>
      </trkpt>
      <trkpt lat="44.76545" lon="5.94459">
        <ele>1951.94</ele>
        <time>2018-06-28T12:49:14Z</time>
      </trkpt>
      <trkpt lat="44.76528" lon="5.94447">
        <ele>1946.78</ele>
        <time>2018-06-28T12:49:38Z</time>
      </trkpt>
      <trkpt lat="44.76513" lon="5.94433">
        <ele>1942.78</ele>
        <time>2018-06-28T12:50:11Z</time>
      </trkpt>
      <trkpt lat="44.76505" lon="5.94408">
        <ele>1941.54</ele>
        <time>2018-06-28T12:50:44Z</time>
      </trkpt>
      <trkpt lat="44.76494" lon="5.94387">
        <ele>1929.79</ele>
        <time>2018-06-28T12:51:27Z</time>
      </trkpt>
      <trkpt lat="44.76489" lon="5.94362">
        <ele>1933.73</ele>
        <time>2018-06-28T12:51:48Z</time>
      </trkpt>
      <trkpt lat="44.76478" lon="5.94341">
        <ele>1928.97</ele>
        <time>2018-06-28T12:52:10Z</time>
      </trkpt>
      <trkpt lat="44.76466" lon="5.94322">
        <ele>1933.71</ele>
        <time>2018-06-28T12:52:42Z</time>
      </trkpt>
      <trkpt lat="44.76453" lon="5.94303">
        <ele>1934.58</ele>
        <time>2018-06-28T12:53:11Z</time>
      </trkpt>
      <trkpt lat="44.76449" lon="5.94279">
        <ele>1937.73</ele>
        <time>2018-06-28T12:53:37Z</time>
      </trkpt>
      <trkpt lat="44.76437" lon="5.94258">
        <ele>1938.74</ele>
        <time>2018-06-28T12:54:00Z</time>
      </trkpt>
      <trkpt lat="44.76442" lon="5.94233">
        <ele>1935.8</ele>
        <time>2018-06-28T12:54:27Z</time>
      </trkpt>
      <trkpt lat="44.76439" lon="5.94208">
        <ele>1937.98</ele>
        <time>2018-06-28T12:54:50Z</time>
      </trkpt>
      <trkpt lat="44.76427" lon="5.94189">
        <ele>1933.38</ele>
        <time>2018-06-28T12:55:13Z</time>
      </trkpt>
      <trkpt lat="44.7641" lon="5.94182">
        <ele>1929.51</ele>
        <time>2018-06-28T12:55:35Z</time>
      </trkpt>
      <trkpt lat="44.76392" lon="5.9417">
        <ele>1926.93</ele>
        <time>2018-06-28T12:55:56Z</time>
      </trkpt>
      <trkpt lat="44.76375" lon="5.94155">
        <ele>1917.7</ele>
        <time>2018-06-28T12:56:34Z</time>
      </trkpt>
      <trkpt lat="44.76365" lon="5.94135">
        <ele>1903.58</ele>
        <time>2018-06-28T12:57:10Z</time>
      </trkpt>
      <trkpt lat="44.76356" lon="5.94112">
        <ele>1895.74</ele>
        <time>2018-06-28T12:57:38Z</time>
      </trkpt>
      <trkpt lat="44.7636" lon="5.94087">
        <ele>1886.74</ele>
        <time>2018-06-28T12:58:17Z</time>
      </trkpt>
      <trkpt lat="44.76348" lon="5.94066">
        <ele>1883.76</ele>
        <time>2018-06-28T12:58:44Z</time>
      </trkpt>
      <trkpt lat="44.76342" lon="5.94042">
        <ele>1881.3</ele>
        <time>2018-06-28T12:59:21Z</time>
      </trkpt>
      <trkpt lat="44.76336" lon="5.94018">
        <ele>1884.49</ele>
        <time>2018-06-28T12:59:47Z</time>
      </trkpt>
      <trkpt lat="44.76333" lon="5.93991">
        <ele>1886.74</ele>
        <time>2018-06-28T13:00:06Z</time>
      </trkpt>
      <trkpt lat="44.76335" lon="5.93965">
        <ele>1891.49</ele>
        <time>2018-06-28T13:00:39Z</time>
      </trkpt>
      <trkpt lat="44.76325" lon="5.93943">
        <ele>1896.73</ele>
        <time>2018-06-28T13:01:08Z</time>
      </trkpt>
      <trkpt lat="44.7631" lon="5.93926">
        <ele>1903.53</ele>
        <time>2018-06-28T13:01:29Z</time>
      </trkpt>
      <trkpt lat="44.76294" lon="5.93911">
        <ele>1899.92</ele>
        <time>2018-06-28T13:02:26Z</time>
      </trkpt>
      <trkpt lat="44.76276" lon="5.939">
        <ele>1895.77</ele>
        <time>2018-06-28T13:02:48Z</time>
      </trkpt>
      <trkpt lat="44.7626" lon="5.93887">
        <ele>1896.33</ele>
        <time>2018-06-28T13:03:04Z</time>
      </trkpt>
      <trkpt lat="44.76243" lon="5.93878">
        <ele>1890.78</ele>
        <time>2018-06-28T13:03:34Z</time>
      </trkpt>
      <trkpt lat="44.76224" lon="5.93879">
        <ele>1892.34</ele>
        <time>2018-06-28T13:03:51Z</time>
      </trkpt>
      <trkpt lat="44.76213" lon="5.93858">
        <ele>1876.89</ele>
        <time>2018-06-28T13:04:32Z</time>
      </trkpt>
      <trkpt lat="44.76195" lon="5.93854">
        <ele>1870.69</ele>
        <time>2018-06-28T13:06:00Z</time>
      </trkpt>
      <trkpt lat="44.76177" lon="5.93854">
        <ele>1856.94</ele>
        <time>2018-06-28T13:07:36Z</time>
      </trkpt>
      <trkpt lat="44.76166" lon="5.93832">
        <ele>1853.5</ele>
        <time>2018-06-28T13:08:05Z</time>
      </trkpt>
      <trkpt lat="44.7615" lon="5.93818">
        <ele>1847.74</ele>
        <time>2018-06-28T13:08:37Z</time>
      </trkpt>
      <trkpt lat="44.76135" lon="5.93803">
        <ele>1853.51</ele>
        <time>2018-06-28T13:08:52Z</time>
      </trkpt>
      <trkpt lat="44.76125" lon="5.93779">
        <ele>1846.3</ele>
        <time>2018-06-28T13:09:14Z</time>
      </trkpt>
      <trkpt lat="44.76117" lon="5.93757">
        <ele>1835.98</ele>
        <time>2018-06-28T13:09:37Z</time>
      </trkpt>
      <trkpt lat="44.76104" lon="5.93735">
        <ele>1830.59</ele>
        <time>2018-06-28T13:09:58Z</time>
      </trkpt>
      <trkpt lat="44.76094" lon="5.93713">
        <ele>1819.98</ele>
        <time>2018-06-28T13:10:23Z</time>
      </trkpt>
      <trkpt lat="44.76084" lon="5.93692">
        <ele>1818.33</ele>
        <time>2018-06-28T13:10:38Z</time>
      </trkpt>
      <trkpt lat="44.7607" lon="5.93674">
        <ele>1819.55</ele>
        <time>2018-06-28T13:10:56Z</time>
      </trkpt>
      <trkpt lat="44.76055" lon="5.9366">
        <ele>1809.03</ele>
        <time>2018-06-28T13:11:23Z</time>
      </trkpt>
      <trkpt lat="44.76041" lon="5.93644">
        <ele>1806.93</ele>
        <time>2018-06-28T13:11:38Z</time>
      </trkpt>
      <trkpt lat="44.76024" lon="5.9363">
        <ele>1804.42</ele>
        <time>2018-06-28T13:11:56Z</time>
      </trkpt>
      <trkpt lat="44.76011" lon="5.93611">
        <ele>1806.7</ele>
        <time>2018-06-28T13:12:13Z</time>
      </trkpt>
      <trkpt lat="44.75992" lon="5.93613">
        <ele>1797.67</ele>
        <time>2018-06-28T13:13:21Z</time>
      </trkpt>
      <trkpt lat="44.75975" lon="5.93607">
        <ele>1788.55</ele>
        <time>2018-06-28T13:14:19Z</time>
      </trkpt>
      <trkpt lat="44.75957" lon="5.93598">
        <ele>1793.54</ele>
        <time>2018-06-28T13:14:33Z</time>
      </trkpt>
      <trkpt lat="44.75944" lon="5.93578">
        <ele>1778.18</ele>
        <time>2018-06-28T13:16:16Z</time>
      </trkpt>
      <trkpt lat="44.75941" lon="5.93553">
        <ele>1776.59</ele>
        <time>2018-06-28T13:16:38Z</time>
      </trkpt>
      <trkpt lat="44.75941" lon="5.93527">
        <ele>1772.74</ele>
        <time>2018-06-28T13:17:16Z</time>
      </trkpt>
      <trkpt lat="44.7594" lon="5.93502">
        <ele>1773.78</ele>
        <time>2018-06-28T13:17:35Z</time>
      </trkpt>
      <trkpt lat="44.7594" lon="5.93476">
        <ele>1773.69</ele>
        <time>2018-06-28T13:18:08Z</time>
      </trkpt>
      <trkpt lat="44.75931" lon="5.9345">
        <ele>1781.37</ele>
        <time>2018-06-28T13:18:19Z</time>
      </trkpt>
      <trkpt lat="44.75921" lon="5.93428">
        <ele>1787.57</ele>
        <time>2018-06-28T13:18:31Z</time>
      </trkpt>
      <trkpt lat="44.75912" lon="5.93401">
        <ele>1782.05</ele>
        <time>2018-06-28T13:19:00Z</time>
      </trkpt>
      <trkpt lat="44.75907" lon="5.93376">
        <ele>1786.92</ele>
        <time>2018-06-28T13:19:21Z</time>
      </trkpt>
      <trkpt lat="44.75911" lon="5.9335">
        <ele>1778.6</ele>
        <time>2018-06-28T13:19:50Z</time>
      </trkpt>
      <trkpt lat="44.75905" lon="5.93323">
        <ele>1777.74</ele>
        <time>2018-06-28T13:20:04Z</time>
      </trkpt>
      <trkpt lat="44.75922" lon="5.93312">
        <ele>1770.13</ele>
        <time>2018-06-28T13:20:28Z</time>
      </trkpt>
      <trkpt lat="44.75929" lon="5.93288">
        <ele>1761.74</ele>
        <time>2018-06-28T13:22:08Z</time>
      </trkpt>
      <trkpt lat="44.75929" lon="5.93262">
        <ele>1758.74</ele>
        <time>2018-06-28T13:22:29Z</time>
      </trkpt>
      <trkpt lat="44.75927" lon="5.93231">
        <ele>1756.34</ele>
        <time>2018-06-28T13:22:59Z</time>
      </trkpt>
      <trkpt lat="44.75926" lon="5.93206">
        <ele>1754.67</ele>
        <time>2018-06-28T13:24:22Z</time>
      </trkpt>
      <trkpt lat="44.75919" lon="5.9318">
        <ele>1740.1</ele>
        <time>2018-06-28T13:26:24Z</time>
      </trkpt>
      <trkpt lat="44.75912" lon="5.93157">
        <ele>1745.48</ele>
        <time>2018-06-28T13:26:39Z</time>
      </trkpt>
      <trkpt lat="44.75904" lon="5.93134">
        <ele>1745.74</ele>
        <time>2018-06-28T13:26:52Z</time>
      </trkpt>
      <trkpt lat="44.75896" lon="5.93107">
        <ele>1744.54</ele>
        <time>2018-06-28T13:27:09Z</time>
      </trkpt>
      <trkpt lat="44.75891" lon="5.93081">
        <ele>1744.18</ele>
        <time>2018-06-28T13:27:38Z</time>
      </trkpt>
      <trkpt lat="44.7588" lon="5.93061">
        <ele>1743.53</ele>
        <time>2018-06-28T13:27:58Z</time>
      </trkpt>
      <trkpt lat="44.7587" lon="5.93037">
        <ele>1741.34</ele>
        <time>2018-06-28T13:28:08Z</time>
      </trkpt>
      <trkpt lat="44.7586" lon="5.93012">
        <ele>1740.56</ele>
        <time>2018-06-28T13:28:26Z</time>
      </trkpt>
      <trkpt lat="44.75852" lon="5.92988">
        <ele>1735.57</ele>
        <time>2018-06-28T13:28:47Z</time>
      </trkpt>
      <trkpt lat="44.75846" lon="5.92964">
        <ele>1728.2</ele>
        <time>2018-06-28T13:29:14Z</time>
      </trkpt>
      <trkpt lat="44.75835" lon="5.92943">
        <ele>1728.74</ele>
        <time>2018-06-28T13:29:31Z</time>
      </trkpt>
      <trkpt lat="44.75824" lon="5.92922">
        <ele>1729.92</ele>
        <time>2018-06-28T13:29:44Z</time>
      </trkpt>
      <trkpt lat="44.75816" lon="5.92896">
        <ele>1710.93</ele>
        <time>2018-06-28T13:30:19Z</time>
      </trkpt>
      <trkpt lat="44.75804" lon="5.92873">
        <ele>1695.86</ele>
        <time>2018-06-28T13:30:50Z</time>
      </trkpt>
      <trkpt lat="44.75788" lon="5.92858">
        <ele>1692.91</ele>
        <time>2018-06-28T13:31:19Z</time>
      </trkpt>
      <trkpt lat="44.75773" lon="5.92843">
        <ele>1686.03</ele>
        <time>2018-06-28T13:31:38Z</time>
      </trkpt>
      <trkpt lat="44.75764" lon="5.92821">
        <ele>1677.55</ele>
        <time>2018-06-28T13:32:01Z</time>
      </trkpt>
      <trkpt lat="44.75782" lon="5.92814">
        <ele>1672.95</ele>
        <time>2018-06-28T13:32:32Z</time>
      </trkpt>
      <trkpt lat="44.75794" lon="5.92791">
        <ele>1675.55</ele>
        <time>2018-06-28T13:33:03Z</time>
      </trkpt>
      <trkpt lat="44.75808" lon="5.92774">
        <ele>1666.8</ele>
        <time>2018-06-28T13:33:26Z</time>
      </trkpt>
      <trkpt lat="44.75826" lon="5.92766">
        <ele>1659.74</ele>
        <time>2018-06-28T13:33:43Z</time>
      </trkpt>
      <trkpt lat="44.75833" lon="5.92741">
        <ele>1653.74</ele>
        <time>2018-06-28T13:34:18Z</time>
      </trkpt>
      <trkpt lat="44.75839" lon="5.92716">
        <ele>1650.74</ele>
        <time>2018-06-28T13:34:37Z</time>
      </trkpt>
      <trkpt lat="44.75842" lon="5.92691">
        <ele>1639.54</ele>
        <time>2018-06-28T13:34:58Z</time>
      </trkpt>
      <trkpt lat="44.75847" lon="5.92666">
        <ele>1636.95</ele>
        <time>2018-06-28T13:35:23Z</time>
      </trkpt>
      <trkpt lat="44.7585" lon="5.9264">
        <ele>1635.99</ele>
        <time>2018-06-28T13:35:46Z</time>
      </trkpt>
      <trkpt lat="44.75859" lon="5.92616">
        <ele>1629.78</ele>
        <time>2018-06-28T13:36:07Z</time>
      </trkpt>
      <trkpt lat="44.75871" lon="5.92597">
        <ele>1629.13</ele>
        <time>2018-06-28T13:36:26Z</time>
      </trkpt>
      <trkpt lat="44.75876" lon="5.92571">
        <ele>1620.98</ele>
        <time>2018-06-28T13:36:41Z</time>
      </trkpt>
      <trkpt lat="44.75884" lon="5.92547">
        <ele>1619.65</ele>
        <time>2018-06-28T13:36:56Z</time>
      </trkpt>
      <trkpt lat="44.7589" lon="5.92572">
        <ele>1613.79</ele>
        <time>2018-06-28T13:37:52Z</time>
      </trkpt>
      <trkpt lat="44.75889" lon="5.92599">
        <ele>1606.98</ele>
        <time>2018-06-28T13:38:07Z</time>
      </trkpt>
      <trkpt lat="44.75887" lon="5.92626">
        <ele>1602.73</ele>
        <time>2018-06-28T13:38:30Z</time>
      </trkpt>
      <trkpt lat="44.75894" lon="5.9265">
        <ele>1602.94</ele>
        <time>2018-06-28T13:38:48Z</time>
      </trkpt>
      <trkpt lat="44.75906" lon="5.92631">
        <ele>1591.76</ele>
        <time>2018-06-28T13:39:33Z</time>
      </trkpt>
      <trkpt lat="44.75917" lon="5.92609">
        <ele>1584.93</ele>
        <time>2018-06-28T13:39:58Z</time>
      </trkpt>
      <trkpt lat="44.75933" lon="5.92596">
        <ele>1585.53</ele>
        <time>2018-06-28T13:40:19Z</time>
      </trkpt>
      <trkpt lat="44.75941" lon="5.92573">
        <ele>1576.51</ele>
        <time>2018-06-28T13:40:48Z</time>
      </trkpt>
      <trkpt lat="44.75939" lon="5.926">
        <ele>1568.9</ele>
        <time>2018-06-28T13:41:22Z</time>
      </trkpt>
      <trkpt lat="44.75951" lon="5.92581">
        <ele>1558.19</ele>
        <time>2018-06-28T13:41:50Z</time>
      </trkpt>
      <trkpt lat="44.75963" lon="5.9256">
        <ele>1553.77</ele>
        <time>2018-06-28T13:42:15Z</time>
      </trkpt>
      <trkpt lat="44.75967" lon="5.92535">
        <ele>1551.7</ele>
        <time>2018-06-28T13:42:34Z</time>
      </trkpt>
      <trkpt lat="44.75976" lon="5.92512">
        <ele>1555.77</ele>
        <time>2018-06-28T13:43:05Z</time>
      </trkpt>
      <trkpt lat="44.75987" lon="5.92492">
        <ele>1529.78</ele>
        <time>2018-06-28T13:44:11Z</time>
      </trkpt>
      <trkpt lat="44.76005" lon="5.92482">
        <ele>1524.55</ele>
        <time>2018-06-28T13:44:32Z</time>
      </trkpt>
      <trkpt lat="44.76012" lon="5.92456">
        <ele>1522.7</ele>
        <time>2018-06-28T13:44:50Z</time>
      </trkpt>
      <trkpt lat="44.7602" lon="5.92431">
        <ele>1523.75</ele>
        <time>2018-06-28T13:45:07Z</time>
      </trkpt>
      <trkpt lat="44.76032" lon="5.92411">
        <ele>1521.71</ele>
        <time>2018-06-28T13:48:24Z</time>
      </trkpt>
      <trkpt lat="44.76049" lon="5.92421">
        <ele>1520.54</ele>
        <time>2018-06-28T13:48:49Z</time>
      </trkpt>
      <trkpt lat="44.76041" lon="5.92444">
        <ele>1512.79</ele>
        <time>2018-06-28T13:49:11Z</time>
      </trkpt>
      <trkpt lat="44.76058" lon="5.92431">
        <ele>1501.54</ele>
        <time>2018-06-28T13:50:00Z</time>
      </trkpt>
      <trkpt lat="44.76063" lon="5.92407">
        <ele>1499.98</ele>
        <time>2018-06-28T13:50:28Z</time>
      </trkpt>
      <trkpt lat="44.76081" lon="5.92415">
        <ele>1493.74</ele>
        <time>2018-06-28T13:50:52Z</time>
      </trkpt>
      <trkpt lat="44.76099" lon="5.92417">
        <ele>1486.75</ele>
        <time>2018-06-28T13:51:19Z</time>
      </trkpt>
      <trkpt lat="44.7612" lon="5.9242">
        <ele>1468.99</ele>
        <time>2018-06-28T13:52:10Z</time>
      </trkpt>
      <trkpt lat="44.76139" lon="5.92412">
        <ele>1475.53</ele>
        <time>2018-06-28T13:52:36Z</time>
      </trkpt>
      <trkpt lat="44.76128" lon="5.92391">
        <ele>1463.02</ele>
        <time>2018-06-28T13:53:10Z</time>
      </trkpt>
      <trkpt lat="44.76126" lon="5.92365">
        <ele>1455.98</ele>
        <time>2018-06-28T13:53:38Z</time>
      </trkpt>
      <trkpt lat="44.76116" lon="5.92343">
        <ele>1447.14</ele>
        <time>2018-06-28T13:54:03Z</time>
      </trkpt>
      <trkpt lat="44.76101" lon="5.92328">
        <ele>1443.14</ele>
        <time>2018-06-28T13:54:43Z</time>
      </trkpt>
      <trkpt lat="44.76102" lon="5.92303">
        <ele>1427.59</ele>
        <time>2018-06-28T13:55:11Z</time>
      </trkpt>
      <trkpt lat="44.76121" lon="5.92302">
        <ele>1415.29</ele>
        <time>2018-06-28T13:56:05Z</time>
      </trkpt>
      <trkpt lat="44.76135" lon="5.92286">
        <ele>1395.59</ele>
        <time>2018-06-28T13:57:45Z</time>
      </trkpt>
      <trkpt lat="44.76154" lon="5.92283">
        <ele>1379.01</ele>
        <time>2018-06-28T13:58:51Z</time>
      </trkpt>
      <trkpt lat="44.76172" lon="5.92287">
        <ele>1369.58</ele>
        <time>2018-06-28T14:00:28Z</time>
      </trkpt>
      <trkpt lat="44.76187" lon="5.92302">
        <ele>1358.75</ele>
        <time>2018-06-28T14:01:04Z</time>
      </trkpt>
      <trkpt lat="44.76204" lon="5.92314">
        <ele>1351.55</ele>
        <time>2018-06-28T14:01:35Z</time>
      </trkpt>
      <trkpt lat="44.76215" lon="5.92335">
        <ele>1338.71</ele>
        <time>2018-06-28T14:02:05Z</time>
      </trkpt>
      <trkpt lat="44.76227" lon="5.92358">
        <ele>1331.51</ele>
        <time>2018-06-28T14:02:36Z</time>
      </trkpt>
      <trkpt lat="44.7623" lon="5.92384">
        <ele>1323.79</ele>
        <time>2018-06-28T14:03:04Z</time>
      </trkpt>
      <trkpt lat="44.76232" lon="5.92409">
        <ele>1316.78</ele>
        <time>2018-06-28T14:03:28Z</time>
      </trkpt>
      <trkpt lat="44.76235" lon="5.92435">
        <ele>1314.78</ele>
        <time>2018-06-28T14:03:39Z</time>
      </trkpt>
      <trkpt lat="44.76234" lon="5.92461">
        <ele>1309.79</ele>
        <time>2018-06-28T14:03:57Z</time>
      </trkpt>
      <trkpt lat="44.7624" lon="5.92486">
        <ele>1307.74</ele>
        <time>2018-06-28T14:04:26Z</time>
      </trkpt>
      <trkpt lat="44.76243" lon="5.92513">
        <ele>1304.34</ele>
        <time>2018-06-28T14:05:58Z</time>
      </trkpt>
      <trkpt lat="44.7624" lon="5.92538">
        <ele>1296.7</ele>
        <time>2018-06-28T14:06:20Z</time>
      </trkpt>
      <trkpt lat="44.76252" lon="5.92557">
        <ele>1294.55</ele>
        <time>2018-06-28T14:07:18Z</time>
      </trkpt>
      <trkpt lat="44.76261" lon="5.92579">
        <ele>1299.7</ele>
        <time>2018-06-28T14:07:47Z</time>
      </trkpt>
      <trkpt lat="44.76264" lon="5.92605">
        <ele>1288.99</ele>
        <time>2018-06-28T14:08:09Z</time>
      </trkpt>
      <trkpt lat="44.76267" lon="5.9263">
        <ele>1283.55</ele>
        <time>2018-06-28T14:08:29Z</time>
      </trkpt>
      <trkpt lat="44.76281" lon="5.92648">
        <ele>1284.58</ele>
        <time>2018-06-28T14:08:49Z</time>
      </trkpt>
      <trkpt lat="44.76299" lon="5.92657">
        <ele>1270.79</ele>
        <time>2018-06-28T14:09:45Z</time>
      </trkpt>
      <trkpt lat="44.76318" lon="5.9266">
        <ele>1263.94</ele>
        <time>2018-06-28T14:10:50Z</time>
      </trkpt>
      <trkpt lat="44.76336" lon="5.92661">
        <ele>1260.74</ele>
        <time>2018-06-28T14:11:08Z</time>
      </trkpt>
      <trkpt lat="44.76321" lon="5.92646">
        <ele>1243.75</ele>
        <time>2018-06-28T14:12:36Z</time>
      </trkpt>
      <trkpt lat="44.7634" lon="5.92644">
        <ele>1236.33</ele>
        <time>2018-06-28T14:13:41Z</time>
      </trkpt>
      <trkpt lat="44.76345" lon="5.9262">
        <ele>1225.75</ele>
        <time>2018-06-28T14:14:59Z</time>
      </trkpt>
      <trkpt lat="44.76356" lon="5.92598">
        <ele>1221.71</ele>
        <time>2018-06-28T14:15:19Z</time>
      </trkpt>
      <trkpt lat="44.76375" lon="5.92595">
        <ele>1210.79</ele>
        <time>2018-06-28T14:15:53Z</time>
      </trkpt>
      <trkpt lat="44.76393" lon="5.926">
        <ele>1216.14</ele>
        <time>2018-06-28T14:17:39Z</time>
      </trkpt>
      <trkpt lat="44.76404" lon="5.9262">
        <ele>1212.81</ele>
        <time>2018-06-28T14:18:44Z</time>
      </trkpt>
      <trkpt lat="44.7642" lon="5.92634">
        <ele>1215.3</ele>
        <time>2018-06-28T14:19:00Z</time>
      </trkpt>
      <trkpt lat="44.76433" lon="5.92651">
        <ele>1215.66</ele>
        <time>2018-06-28T14:19:28Z</time>
      </trkpt>
      <trkpt lat="44.76451" lon="5.9266">
        <ele>1215.75</ele>
        <time>2018-06-28T14:19:42Z</time>
      </trkpt>
      <trkpt lat="44.76469" lon="5.92659">
        <ele>1219.74</ele>
        <time>2018-06-28T14:19:59Z</time>
      </trkpt>
      <trkpt lat="44.76487" lon="5.92666">
        <ele>1220.94</ele>
        <time>2018-06-28T14:20:17Z</time>
      </trkpt>
      <trkpt lat="44.76505" lon="5.92673">
        <ele>1220.95</ele>
        <time>2018-06-28T14:20:35Z</time>
      </trkpt>
      <trkpt lat="44.76518" lon="5.92692">
        <ele>1223.9</ele>
        <time>2018-06-28T14:20:54Z</time>
      </trkpt>
      <trkpt lat="44.76514" lon="5.92717">
        <ele>1226.78</ele>
        <time>2018-06-28T14:21:12Z</time>
      </trkpt>
      <trkpt lat="44.7652" lon="5.92741">
        <ele>1225.75</ele>
        <time>2018-06-28T14:21:32Z</time>
      </trkpt>
      <trkpt lat="44.76539" lon="5.92738">
        <ele>1218.96</ele>
        <time>2018-06-28T14:22:10Z</time>
      </trkpt>
      <trkpt lat="44.76549" lon="5.92715">
        <ele>1210.93</ele>
        <time>2018-06-28T14:22:30Z</time>
      </trkpt>
      <trkpt lat="44.76555" lon="5.92688">
        <ele>1211.74</ele>
        <time>2018-06-28T14:22:42Z</time>
      </trkpt>
      <trkpt lat="44.76572" lon="5.92673">
        <ele>1209.15</ele>
        <time>2018-06-28T14:22:59Z</time>
      </trkpt>
      <trkpt lat="44.76584" lon="5.92653">
        <ele>1198.76</ele>
        <time>2018-06-28T14:23:26Z</time>
      </trkpt>
      <trkpt lat="44.76603" lon="5.92646">
        <ele>1186.94</ele>
        <time>2018-06-28T14:23:48Z</time>
      </trkpt>
      <trkpt lat="44.76617" lon="5.92629">
        <ele>1177.78</ele>
        <time>2018-06-28T14:24:04Z</time>
      </trkpt>
      <trkpt lat="44.76631" lon="5.92611">
        <ele>1176.74</ele>
        <time>2018-06-28T14:24:18Z</time>
      </trkpt>
      <trkpt lat="44.76641" lon="5.9259">
        <ele>1176.75</ele>
        <time>2018-06-28T14:24:30Z</time>
      </trkpt>
      <trkpt lat="44.76658" lon="5.92579">
        <ele>1165.75</ele>
        <time>2018-06-28T14:24:47Z</time>
      </trkpt>
      <trkpt lat="44.76664" lon="5.92553">
        <ele>1166.77</ele>
        <time>2018-06-28T14:25:01Z</time>
      </trkpt>
      <trkpt lat="44.76675" lon="5.92532">
        <ele>1160.01</ele>
        <time>2018-06-28T14:25:14Z</time>
      </trkpt>
      <trkpt lat="44.76684" lon="5.92509">
        <ele>1157.71</ele>
        <time>2018-06-28T14:25:29Z</time>
      </trkpt>
      <trkpt lat="44.76696" lon="5.92488">
        <ele>1154.65</ele>
        <time>2018-06-28T14:25:44Z</time>
      </trkpt>
      <trkpt lat="44.76706" lon="5.92467">
        <ele>1152.16</ele>
        <time>2018-06-28T14:25:58Z</time>
      </trkpt>
      <trkpt lat="44.76713" lon="5.92442">
        <ele>1145.14</ele>
        <time>2018-06-28T14:26:13Z</time>
      </trkpt>
      <trkpt lat="44.76725" lon="5.92423">
        <ele>1136.77</ele>
        <time>2018-06-28T14:26:29Z</time>
      </trkpt>
      <trkpt lat="44.76735" lon="5.924">
        <ele>1134.93</ele>
        <time>2018-06-28T14:26:43Z</time>
      </trkpt>
      <trkpt lat="44.76745" lon="5.92378">
        <ele>1130.79</ele>
        <time>2018-06-28T14:26:58Z</time>
      </trkpt>
      <trkpt lat="44.7676" lon="5.92364">
        <ele>1120.61</ele>
        <time>2018-06-28T14:27:52Z</time>
      </trkpt>
      <trkpt lat="44.76771" lon="5.92343">
        <ele>1120.72</ele>
        <time>2018-06-28T14:28:10Z</time>
      </trkpt>
      <trkpt lat="44.76781" lon="5.92321">
        <ele>1113.7</ele>
        <time>2018-06-28T14:28:28Z</time>
      </trkpt>
      <trkpt lat="44.76794" lon="5.92301">
        <ele>1103.94</ele>
        <time>2018-06-28T14:28:49Z</time>
      </trkpt>
      <trkpt lat="44.76807" lon="5.92283">
        <ele>1094.74</ele>
        <time>2018-06-28T14:29:09Z</time>
      </trkpt>
      <trkpt lat="44.76811" lon="5.92258">
        <ele>1094.5</ele>
        <time>2018-06-28T14:29:25Z</time>
      </trkpt>
      <trkpt lat="44.76806" lon="5.92233">
        <ele>1085.74</ele>
        <time>2018-06-28T14:30:00Z</time>
      </trkpt>
      <trkpt lat="44.76801" lon="5.92208">
        <ele>1076.98</ele>
        <time>2018-06-28T14:30:20Z</time>
      </trkpt>
      <trkpt lat="44.76787" lon="5.92192">
        <ele>1068.52</ele>
        <time>2018-06-28T14:30:36Z</time>
      </trkpt>
      <trkpt lat="44.76797" lon="5.92171">
        <ele>1063.75</ele>
        <time>2018-06-28T14:31:20Z</time>
      </trkpt>
      <trkpt lat="44.76813" lon="5.92154">
        <ele>1061.74</ele>
        <time>2018-06-28T14:31:42Z</time>
      </trkpt>
      <trkpt lat="44.76827" lon="5.92137">
        <ele>1059.77</ele>
        <time>2018-06-28T14:31:58Z</time>
      </trkpt>
      <trkpt lat="44.76838" lon="5.92116">
        <ele>1058.94</ele>
        <time>2018-06-28T14:32:13Z</time>
      </trkpt>
      <trkpt lat="44.76858" lon="5.92117">
        <ele>1054.02</ele>
        <time>2018-06-28T14:32:27Z</time>
      </trkpt>
      <trkpt lat="44.76876" lon="5.9212">
        <ele>1050.74</ele>
        <time>2018-06-28T14:32:41Z</time>
      </trkpt>
      <trkpt lat="44.76895" lon="5.92123">
        <ele>1046.75</ele>
        <time>2018-06-28T14:32:57Z</time>
      </trkpt>
      <trkpt lat="44.76914" lon="5.92113">
        <ele>1047.34</ele>
        <time>2018-06-28T14:33:11Z</time>
      </trkpt>
      <trkpt lat="44.76931" lon="5.92104">
        <ele>1046.93</ele>
        <time>2018-06-28T14:33:27Z</time>
      </trkpt>
      <trkpt lat="44.76948" lon="5.92094">
        <ele>1048.7</ele>
        <time>2018-06-28T14:33:41Z</time>
      </trkpt>
      <trkpt lat="44.76966" lon="5.92087">
        <ele>1046.9</ele>
        <time>2018-06-28T14:33:56Z</time>
      </trkpt>
      <trkpt lat="44.76982" lon="5.92074">
        <ele>1047.73</ele>
        <time>2018-06-28T14:34:11Z</time>
      </trkpt>
      <trkpt lat="44.76998" lon="5.92059">
        <ele>1042.75</ele>
        <time>2018-06-28T14:34:27Z</time>
      </trkpt>
      <trkpt lat="44.77013" lon="5.92044">
        <ele>1041.78</ele>
        <time>2018-06-28T14:34:40Z</time>
      </trkpt>
      <trkpt lat="44.77031" lon="5.92034">
        <ele>1039.98</ele>
        <time>2018-06-28T14:35:22Z</time>
      </trkpt>
      <trkpt lat="44.77048" lon="5.92023">
        <ele>1041.33</ele>
        <time>2018-06-28T14:35:39Z</time>
      </trkpt>
      <trkpt lat="44.77061" lon="5.92006">
        <ele>1045.73</ele>
        <time>2018-06-28T14:35:53Z</time>
      </trkpt>
      <trkpt lat="44.77078" lon="5.91994">
        <ele>1038.83</ele>
        <time>2018-06-28T14:36:09Z</time>
      </trkpt>
      <trkpt lat="44.77097" lon="5.91993">
        <ele>1033.74</ele>
        <time>2018-06-28T14:36:24Z</time>
      </trkpt>
      <trkpt lat="44.77114" lon="5.91989">
        <ele>1032.54</ele>
        <time>2018-06-28T14:36:40Z</time>
      </trkpt>
      <trkpt lat="44.77131" lon="5.92002">
        <ele>1026.79</ele>
        <time>2018-06-28T14:36:54Z</time>
      </trkpt>
      <trkpt lat="44.77148" lon="5.9201">
        <ele>1025.74</ele>
        <time>2018-06-28T14:37:09Z</time>
      </trkpt>
      <trkpt lat="44.77165" lon="5.9202">
        <ele>1024.77</ele>
        <time>2018-06-28T14:37:25Z</time>
      </trkpt>
      <trkpt lat="44.77181" lon="5.92032">
        <ele>1024.73</ele>
        <time>2018-06-28T14:37:41Z</time>
      </trkpt>
      <trkpt lat="44.77199" lon="5.92043">
        <ele>1023.54</ele>
        <time>2018-06-28T14:37:53Z</time>
      </trkpt>
      <trkpt lat="44.77217" lon="5.92046">
        <ele>1021.78</ele>
        <time>2018-06-28T14:38:06Z</time>
      </trkpt>
      <trkpt lat="44.77235" lon="5.92045">
        <ele>1016.9</ele>
        <time>2018-06-28T14:38:24Z</time>
      </trkpt>
      <trkpt lat="44.77252" lon="5.92056">
        <ele>1019.57</ele>
        <time>2018-06-28T14:38:39Z</time>
      </trkpt>
      <trkpt lat="44.77263" lon="5.92079">
        <ele>1017.7</ele>
        <time>2018-06-28T14:38:55Z</time>
      </trkpt>
      <trkpt lat="44.77267" lon="5.92106">
        <ele>1011.17</ele>
        <time>2018-06-28T14:39:13Z</time>
      </trkpt>
      <trkpt lat="44.77277" lon="5.92128">
        <ele>1007.98</ele>
        <time>2018-06-28T14:39:29Z</time>
      </trkpt>
      <trkpt lat="44.77293" lon="5.92141">
        <ele>1005.6</ele>
        <time>2018-06-28T14:39:42Z</time>
      </trkpt>
      <trkpt lat="44.77304" lon="5.92161">
        <ele>1005.74</ele>
        <time>2018-06-28T14:40:06Z</time>
      </trkpt>
      <trkpt lat="44.77316" lon="5.92184">
        <ele>997.4</ele>
        <time>2018-06-28T14:40:18Z</time>
      </trkpt>
      <trkpt lat="44.7733" lon="5.92202">
        <ele>993.69</ele>
        <time>2018-06-28T14:40:32Z</time>
      </trkpt>
      <trkpt lat="44.77345" lon="5.92214">
        <ele>996.67</ele>
        <time>2018-06-28T14:40:43Z</time>
      </trkpt>
      <trkpt lat="44.77359" lon="5.92232">
        <ele>992.82</ele>
        <time>2018-06-28T14:41:00Z</time>
      </trkpt>
      <trkpt lat="44.77371" lon="5.92254">
        <ele>988.14</ele>
        <time>2018-06-28T14:41:15Z</time>
      </trkpt>
      <trkpt lat="44.7738" lon="5.92277">
        <ele>985.74</ele>
        <time>2018-06-28T14:41:32Z</time>
      </trkpt>
      <trkpt lat="44.77396" lon="5.92292">
        <ele>985.78</ele>
        <time>2018-06-28T14:41:43Z</time>
      </trkpt>
      <trkpt lat="44.77406" lon="5.92314">
        <ele>980.01</ele>
        <time>2018-06-28T14:42:01Z</time>
      </trkpt>
      <trkpt lat="44.77424" lon="5.92316">
        <ele>980.85</ele>
        <time>2018-06-28T14:42:13Z</time>
      </trkpt>
      <trkpt lat="44.77443" lon="5.92311">
        <ele>981.55</ele>
        <time>2018-06-28T14:42:27Z</time>
      </trkpt>
      <trkpt lat="44.77461" lon="5.92304">
        <ele>979.76</ele>
        <time>2018-06-28T14:42:45Z</time>
      </trkpt>
      <trkpt lat="44.77479" lon="5.92296">
        <ele>977.9</ele>
        <time>2018-06-28T14:43:03Z</time>
      </trkpt>
      <trkpt lat="44.77497" lon="5.92288">
        <ele>973.89</ele>
        <time>2018-06-28T14:43:21Z</time>
      </trkpt>
      <trkpt lat="44.77514" lon="5.92281">
        <ele>970.78</ele>
        <time>2018-06-28T14:43:35Z</time>
      </trkpt>
      <trkpt lat="44.77529" lon="5.92296">
        <ele>967.78</ele>
        <time>2018-06-28T14:43:51Z</time>
      </trkpt>
      <trkpt lat="44.77545" lon="5.92311">
        <ele>967.34</ele>
        <time>2018-06-28T14:44:07Z</time>
      </trkpt>
      <trkpt lat="44.77554" lon="5.92336">
        <ele>963.59</ele>
        <time>2018-06-28T14:44:23Z</time>
      </trkpt>
      <trkpt lat="44.77565" lon="5.92358">
        <ele>960.97</ele>
        <time>2018-06-28T14:44:34Z</time>
      </trkpt>
      <trkpt lat="44.7758" lon="5.92375">
        <ele>961.58</ele>
        <time>2018-06-28T14:44:46Z</time>
      </trkpt>
      <trkpt lat="44.77593" lon="5.92396">
        <ele>961.59</ele>
        <time>2018-06-28T14:45:01Z</time>
      </trkpt>
      <trkpt lat="44.77601" lon="5.9242">
        <ele>966.9</ele>
        <time>2018-06-28T14:45:14Z</time>
      </trkpt>
      <trkpt lat="44.77613" lon="5.9244">
        <ele>964.54</ele>
        <time>2018-06-28T14:45:29Z</time>
      </trkpt>
      <trkpt lat="44.7762" lon="5.92464">
        <ele>969.73</ele>
        <time>2018-06-28T14:45:48Z</time>
      </trkpt>
      <trkpt lat="44.77631" lon="5.92486">
        <ele>963.3</ele>
        <time>2018-06-28T14:46:02Z</time>
      </trkpt>
      <trkpt lat="44.77637" lon="5.9251">
        <ele>964.54</ele>
        <time>2018-06-28T14:46:13Z</time>
      </trkpt>
      <trkpt lat="44.7764" lon="5.92537">
        <ele>963.54</ele>
        <time>2018-06-28T14:46:31Z</time>
      </trkpt>
      <trkpt lat="44.77649" lon="5.92564">
        <ele>966.94</ele>
        <time>2018-06-28T14:46:48Z</time>
      </trkpt>
      <trkpt lat="44.77646" lon="5.9259">
        <ele>970.74</ele>
        <time>2018-06-28T14:47:03Z</time>
      </trkpt>
      <trkpt lat="44.77663" lon="5.92601">
        <ele>960.7</ele>
        <time>2018-06-28T14:47:13Z</time>
      </trkpt>
      <trkpt lat="44.77678" lon="5.92618">
        <ele>961.35</ele>
        <time>2018-06-28T14:47:33Z</time>
      </trkpt>
      <trkpt lat="44.77687" lon="5.92642">
        <ele>957.16</ele>
        <time>2018-06-28T14:47:50Z</time>
      </trkpt>
      <trkpt lat="44.77701" lon="5.9266">
        <ele>961.55</ele>
        <time>2018-06-28T14:48:09Z</time>
      </trkpt>
      <trkpt lat="44.77721" lon="5.92661">
        <ele>959.36</ele>
        <time>2018-06-28T14:48:26Z</time>
      </trkpt>
      <trkpt lat="44.77738" lon="5.9267">
        <ele>955.58</ele>
        <time>2018-06-28T14:48:36Z</time>
      </trkpt>
      <trkpt lat="44.77756" lon="5.92665">
        <ele>957.68</ele>
        <time>2018-06-28T14:48:54Z</time>
      </trkpt>
      <trkpt lat="44.77773" lon="5.92655">
        <ele>950.77</ele>
        <time>2018-06-28T14:50:09Z</time>
      </trkpt>
      <trkpt lat="44.7779" lon="5.92639">
        <ele>951.73</ele>
        <time>2018-06-28T14:50:26Z</time>
      </trkpt>
      <trkpt lat="44.77774" lon="5.92655">
        <ele>951.94</ele>
        <time>2018-06-28T14:50:53Z</time>
      </trkpt>
      <trkpt lat="44.77789" lon="5.92637">
        <ele>952.54</ele>
        <time>2018-06-28T14:55:21Z</time>
      </trkpt>
      <trkpt lat="44.77807" lon="5.92627">
        <ele>956.72</ele>
        <time>2018-06-28T14:55:36Z</time>
      </trkpt>
      <trkpt lat="44.77825" lon="5.92618">
        <ele>948.95</ele>
        <time>2018-06-28T14:55:52Z</time>
      </trkpt>
      <trkpt lat="44.7784" lon="5.92603">
        <ele>945.66</ele>
        <time>2018-06-28T14:56:15Z</time>
      </trkpt>
      <trkpt lat="44.77858" lon="5.92599">
        <ele>947.74</ele>
        <time>2018-06-28T14:56:36Z</time>
      </trkpt>
    </trkseg>
  </trk>
</gpx>